Observation data for Boys Ranch on 12/09/2018      Previous  Date  Next       Current Mesonet Observations  Soil Data  Daily Summary Page  Observations in Plain Language
KBY1 090600Z 29007KT M06/M08 A3033 RMK A01 T10601082  RH  085%=      5-min Rain = 0
KBY1 090601Z 29007KT M06/M08 A3033 RMK A01 T10601082  RH  085%=      5-min Rain = 0
KBY1 090602Z 30007KT M06/M08 A3033 RMK A01 T10581081  RH  084%=      5-min Rain = 0
KBY1 090603Z 31006KT M06/M08 A3033 RMK A01 T10571080  RH  084%=      5-min Rain = 0
KBY1 090604Z 32006KT M06/M08 A3033 RMK A01 T10561081  RH  083%=      5-min Rain = 0
KBY1 090605Z 32005KT M06/M08 A3033 RMK A01 T10571082  RH  083%=      5-min Rain = 0
KBY1 090606Z 32006KT M06/M08 A3033 RMK A01 T10581083  RH  083%=      5-min Rain = 0
KBY1 090607Z 32006KT M06/M08 A3033 RMK A01 T10591084  RH  083%=      5-min Rain = 0
KBY1 090608Z 32005KT M06/M08 A3033 RMK A01 T10591083  RH  083%=      5-min Rain = 0
KBY1 090609Z 32005KT M06/M08 A3033 RMK A01 T10601084  RH  084%=      5-min Rain = 0
KBY1 090610Z 32005KT M06/M08 A3033 RMK A01 T10611084  RH  084%=      5-min Rain = 0
KBY1 090611Z 32005KT M06/M08 A3033 RMK A01 T10611084  RH  084%=      5-min Rain = 0
KBY1 090612Z 31004KT M06/M08 A3033 RMK A01 T10611084  RH  084%=      5-min Rain = 0
KBY1 090613Z 29002KT M06/M08 A3033 RMK A01 T10611083  RH  084%=      5-min Rain = 0
KBY1 090614Z 18001KT M06/M08 A3033 RMK A01 T10611083  RH  084%=      5-min Rain = 0
KBY1 090615Z 19002KT M06/M09 A3033 RMK A01 T10631087  RH  084%=      5-min Rain = 0
KBY1 090616Z 19001KT M07/M09 A3033 RMK A01 T10651088  RH  084%=      5-min Rain = 0
KBY1 090617Z 18000KT M07/M09 A3033 RMK A01 T10651087  RH  085%=      5-min Rain = 0
KBY1 090618Z 22000KT M07/M09 A3033 RMK A01 T10651086  RH  086%=      5-min Rain = 0
KBY1 090619Z 12000KT M06/M08 A3033 RMK A01 T10641084  RH  086%=      5-min Rain = 0
KBY1 090620Z 16000KT M06/M08 A3033 RMK A01 T10641083  RH  086%=      5-min Rain = 0
KBY1 090621Z 00000KT M06/M08 A3033 RMK A01 T10641083  RH  086%=      5-min Rain = 0
KBY1 090622Z 20001KT M06/M08 A3033 RMK A01 T10641084  RH  086%=      5-min Rain = 0
KBY1 090623Z 22001KT M06/M08 A3033 RMK A01 T10641084  RH  086%=      5-min Rain = 0
KBY1 090624Z 24001KT M06/M08 A3033 RMK A01 T10641084  RH  085%=      5-min Rain = 0
KBY1 090625Z 26001KT M06/M09 A3033 RMK A01 T10641085  RH  085%=      5-min Rain = 0
KBY1 090626Z 26001KT M07/M09 A3033 RMK A01 T10651085  RH  085%=      5-min Rain = 0
KBY1 090627Z 24001KT M07/M09 A3033 RMK A01 T10651085  RH  085%=      5-min Rain = 0
KBY1 090628Z 00000KT M07/M09 A3033 RMK A01 T10651086  RH  085%=      5-min Rain = 0
KBY1 090629Z 00000KT M07/M09 A3033 RMK A01 T10661087  RH  085%=      5-min Rain = 0
KBY1 090630Z 00000KT M07/M09 A3033 RMK A01 T10651085  RH  086%=      5-min Rain = 0
KBY1 090631Z 00000KT M06/M08 A3033 RMK A01 T10641084  RH  086%=      5-min Rain = 0
KBY1 090632Z 00000KT M07/M09 A3033 RMK A01 T10651085  RH  086%=      5-min Rain = 0
KBY1 090633Z 33000KT M07/M09 A3033 RMK A01 T10661087  RH  085%=      5-min Rain = 0
KBY1 090634Z 33000KT M07/M09 A3033 RMK A01 T10661088  RH  085%=      5-min Rain = 0
KBY1 090635Z 00000KT M07/M09 A3033 RMK A01 T10671088  RH  085%=      5-min Rain = 0
KBY1 090636Z 02000KT M07/M09 A3033 RMK A01 T10671088  RH  085%=      5-min Rain = 0
KBY1 090637Z 02000KT M07/M09 A3033 RMK A01 T10681089  RH  085%=      5-min Rain = 0
KBY1 090638Z 01001KT M07/M09 A3033 RMK A01 T10681088  RH  086%=      5-min Rain = 0
KBY1 090639Z 01000KT M07/M09 A3033 RMK A01 T10691089  RH  086%=      5-min Rain = 0
KBY1 090640Z 07001KT M07/M09 A3033 RMK A01 T10701090  RH  086%=      5-min Rain = 0
KBY1 090641Z 08001KT M07/M09 A3033 RMK A01 T10711091  RH  086%=      5-min Rain = 0
KBY1 090642Z 08001KT M07/M09 A3033 RMK A01 T10721092  RH  086%=      5-min Rain = 0
KBY1 090643Z 07001KT M07/M09 A3033 RMK A01 T10731092  RH  086%=      5-min Rain = 0
KBY1 090644Z 06001KT M07/M09 A3033 RMK A01 T10731092  RH  087%=      5-min Rain = 0
KBY1 090645Z 04001KT M07/M09 A3033 RMK A01 T10741092  RH  087%=      5-min Rain = 0
KBY1 090646Z 03001KT M07/M09 A3033 RMK A01 T10741091  RH  087%=      5-min Rain = 0
KBY1 090647Z 02001KT M07/M09 A3033 RMK A01 T10741091  RH  088%=      5-min Rain = 0
KBY1 090648Z 00000KT M07/M09 A3033 RMK A01 T10731089  RH  088%=      5-min Rain = 0
KBY1 090649Z 00000KT M07/M09 A3033 RMK A01 T10721088  RH  089%=      5-min Rain = 0
KBY1 090650Z 00000KT M07/M09 A3033 RMK A01 T10711087  RH  089%=      5-min Rain = 0
KBY1 090651Z 00000KT M07/M09 A3033 RMK A01 T10701085  RH  089%=      5-min Rain = 0
KBY1 090652Z 00000KT M07/M09 A3033 RMK A01 T10701085  RH  089%=      5-min Rain = 0
KBY1 090653Z 00000KT M07/M09 A3033 RMK A01 T10701085  RH  089%=      5-min Rain = 0
KBY1 090654Z 00000KT M07/M08 A3033 RMK A01 T10691084  RH  089%=      5-min Rain = 0
KBY1 090655Z 00000KT M07/M09 A3033 RMK A01 T10691085  RH  089%=      5-min Rain = 0
KBY1 090656Z 00000KT M07/M09 A3032 RMK A01 T10701086  RH  088%=      5-min Rain = 0
KBY1 090657Z 00000KT M07/M09 A3032 RMK A01 T10701086  RH  088%=      5-min Rain = 0
KBY1 090658Z 00000KT M07/M09 A3032 RMK A01 T10701086  RH  088%=      5-min Rain = 0
KBY1 090659Z 35000KT M07/M09 A3032 RMK A01 T10701086  RH  088%=      5-min Rain = 0
KBY1 090700Z 00000KT M07/M09 A3032 RMK A01 T10701086  RH  088%=      5-min Rain = 0
KBY1 090701Z 22000KT M07/M09 A3032 RMK A01 T10711088  RH  087%=      5-min Rain = 0
KBY1 090702Z 21001KT M07/M09 A3032 RMK A01 T10731091  RH  087%=      5-min Rain = 0
KBY1 090703Z 22002KT M07/M09 A3032 RMK A01 T10741092  RH  087%=      5-min Rain = 0
KBY1 090704Z 24002KT M07/M09 A3032 RMK A01 T10741091  RH  087%=      5-min Rain = 0
KBY1 090705Z 26002KT M07/M09 A3032 RMK A01 T10741090  RH  088%=      5-min Rain = 0
KBY1 090706Z 26002KT M07/M09 A3032 RMK A01 T10741089  RH  089%=      5-min Rain = 0
KBY1 090707Z 27001KT M07/M09 A3032 RMK A01 T10731088  RH  089%=      5-min Rain = 0
KBY1 090708Z 29001KT M07/M09 A3032 RMK A01 T10731088  RH  089%=      5-min Rain = 0
KBY1 090709Z 30002KT M07/M09 A3032 RMK A01 T10731087  RH  089%=      5-min Rain = 0
KBY1 090710Z 31002KT M07/M09 A3032 RMK A01 T10711086  RH  089%=      5-min Rain = 0
KBY1 090711Z 33002KT M07/M09 A3032 RMK A01 T10711085  RH  089%=      5-min Rain = 0
KBY1 090712Z 33002KT M07/M08 A3032 RMK A01 T10701084  RH  090%=      5-min Rain = 0
KBY1 090713Z 32002KT M07/M08 A3032 RMK A01 T10681083  RH  090%=      5-min Rain = 0
KBY1 090714Z 31002KT M07/M08 A3033 RMK A01 T10681083  RH  089%=      5-min Rain = 0
KBY1 090715Z 31002KT M07/M08 A3033 RMK A01 T10681084  RH  089%=      5-min Rain = 0
KBY1 090716Z 31002KT M07/M08 A3033 RMK A01 T10681084  RH  088%=      5-min Rain = 0
KBY1 090717Z 29003KT M07/M08 A3033 RMK A01 T10681084  RH  088%=      5-min Rain = 0
KBY1 090718Z 29003KT M07/M09 A3032 RMK A01 T10681085  RH  088%=      5-min Rain = 0
KBY1 090719Z 29003KT M07/M09 A3032 RMK A01 T10681086  RH  087%=      5-min Rain = 0
KBY1 090720Z 30003KT M07/M09 A3032 RMK A01 T10681086  RH  087%=      5-min Rain = 0
KBY1 090721Z 29003KT M07/M09 A3032 RMK A01 T10681086  RH  087%=      5-min Rain = 0
KBY1 090722Z 29002KT M07/M09 A3032 RMK A01 T10681087  RH  087%=      5-min Rain = 0
KBY1 090723Z 30003KT M07/M09 A3032 RMK A01 T10691087  RH  087%=      5-min Rain = 0
KBY1 090724Z 30003KT M07/M09 A3032 RMK A01 T10691087  RH  087%=      5-min Rain = 0
KBY1 090725Z 29003KT M07/M09 A3032 RMK A01 T10701088  RH  087%=      5-min Rain = 0
KBY1 090726Z 30004KT M07/M09 A3032 RMK A01 T10701088  RH  087%=      5-min Rain = 0
KBY1 090727Z 31002KT M07/M09 A3032 RMK A01 T10701088  RH  087%=      5-min Rain = 0
KBY1 090728Z 32001KT M07/M09 A3032 RMK A01 T10691087  RH  087%=      5-min Rain = 0
KBY1 090729Z 31002KT M07/M09 A3032 RMK A01 T10681086  RH  087%=      5-min Rain = 0
KBY1 090730Z 31003KT M07/M09 A3032 RMK A01 T10681087  RH  087%=      5-min Rain = 0
KBY1 090731Z 31004KT M07/M09 A3032 RMK A01 T10691088  RH  087%=      5-min Rain = 0
KBY1 090732Z 31005KT M07/M09 A3032 RMK A01 T10701088  RH  087%=      5-min Rain = 0
KBY1 090733Z 30005KT M07/M09 A3032 RMK A01 T10691087  RH  087%=      5-min Rain = 0
KBY1 090734Z 31005KT M07/M09 A3032 RMK A01 T10691086  RH  087%=      5-min Rain = 0
KBY1 090735Z 31005KT M07/M09 A3032 RMK A01 T10681086  RH  087%=      5-min Rain = 0
KBY1 090736Z 31005KT M07/M09 A3032 RMK A01 T10681086  RH  087%=      5-min Rain = 0
KBY1 090737Z 32004KT M07/M09 A3032 RMK A01 T10671086  RH  087%=      5-min Rain = 0
KBY1 090738Z 32003KT M07/M09 A3032 RMK A01 T10671086  RH  087%=      5-min Rain = 0
KBY1 090739Z 31003KT M07/M09 A3032 RMK A01 T10681087  RH  086%=      5-min Rain = 0
KBY1 090740Z 30004KT M07/M09 A3032 RMK A01 T10681087  RH  086%=      5-min Rain = 0
KBY1 090741Z 30004KT M07/M09 A3032 RMK A01 T10681087  RH  087%=      5-min Rain = 0
KBY1 090742Z 32005KT M07/M09 A3032 RMK A01 T10691087  RH  087%=      5-min Rain = 0
KBY1 090743Z 32006KT M07/M09 A3032 RMK A01 T10691087  RH  087%=      5-min Rain = 0
KBY1 090744Z 31006KT M07/M09 A3033 RMK A01 T10691087  RH  087%=      5-min Rain = 0
KBY1 090745Z 31006KT M07/M09 A3033 RMK A01 T10691087  RH  087%=      5-min Rain = 0
KBY1 090746Z 31005KT M07/M09 A3033 RMK A01 T10691086  RH  087%=      5-min Rain = 0
KBY1 090747Z 32004KT M07/M09 A3032 RMK A01 T10681086  RH  087%=      5-min Rain = 0
KBY1 090748Z 31003KT M07/M09 A3032 RMK A01 T10681086  RH  087%=      5-min Rain = 0
KBY1 090749Z 29003KT M07/M09 A3032 RMK A01 T10691087  RH  087%=      5-min Rain = 0
KBY1 090750Z 29002KT M07/M09 A3032 RMK A01 T10691087  RH  087%=      5-min Rain = 0
KBY1 090751Z 27001KT M07/M09 A3032 RMK A01 T10691087  RH  087%=      5-min Rain = 0
KBY1 090752Z 00000KT M07/M09 A3032 RMK A01 T10691087  RH  087%=      5-min Rain = 0
KBY1 090753Z 00000KT M07/M09 A3032 RMK A01 T10691087  RH  087%=      5-min Rain = 0
KBY1 090754Z 32000KT M07/M09 A3032 RMK A01 T10681085  RH  087%=      5-min Rain = 0
KBY1 090755Z 29000KT M07/M09 A3033 RMK A01 T10671085  RH  088%=      5-min Rain = 0
KBY1 090756Z 29001KT M07/M09 A3033 RMK A01 T10671085  RH  087%=      5-min Rain = 0
KBY1 090757Z 30004KT M07/M08 A3033 RMK A01 T10671084  RH  087%=      5-min Rain = 0
KBY1 090758Z 31003KT M07/M09 A3033 RMK A01 T10671085  RH  087%=      5-min Rain = 0
KBY1 090759Z 31002KT M07/M08 A3033 RMK A01 T10661084  RH  087%=      5-min Rain = 0
KBY1 090800Z 30001KT M07/M08 A3033 RMK A01 T10661084  RH  087%=      5-min Rain = 0
KBY1 090801Z 30001KT M07/M09 A3033 RMK A01 T10661085  RH  087%=      5-min Rain = 0
KBY1 090802Z 29000KT M07/M09 A3033 RMK A01 T10671086  RH  086%=      5-min Rain = 0
KBY1 090803Z 00000KT M07/M09 A3033 RMK A01 T10671086  RH  086%=      5-min Rain = 0
KBY1 090804Z 00000KT M07/M09 A3033 RMK A01 T10671086  RH  086%=      5-min Rain = 0
KBY1 090805Z 31000KT M07/M09 A3033 RMK A01 T10671086  RH  086%=      5-min Rain = 0
KBY1 090806Z 32000KT M07/M09 A3033 RMK A01 T10681087  RH  086%=      5-min Rain = 0
KBY1 090807Z 34002KT M07/M09 A3033 RMK A01 T10681087  RH  086%=      5-min Rain = 0
KBY1 090808Z 31002KT M07/M09 A3033 RMK A01 T10681087  RH  087%=      5-min Rain = 0
KBY1 090809Z 30005KT M07/M09 A3033 RMK A01 T10681086  RH  087%=      5-min Rain = 0
KBY1 090810Z 29005KT M07/M09 A3033 RMK A01 T10671085  RH  087%=      5-min Rain = 0
KBY1 090811Z 30005KT M07/M08 A3033 RMK A01 T10661083  RH  088%=      5-min Rain = 0
KBY1 090812Z 30006KT M06/M08 A3033 RMK A01 T10641082  RH  088%=      5-min Rain = 0
KBY1 090813Z 29006KT M06/M08 A3033 RMK A01 T10631081  RH  087%=      5-min Rain = 0
KBY1 090814Z 30006KT M06/M08 A3033 RMK A01 T10631082  RH  086%=      5-min Rain = 0
KBY1 090815Z 29006KT M06/M08 A3033 RMK A01 T10621082  RH  086%=      5-min Rain = 0
KBY1 090816Z 29006KT M06/M08 A3033 RMK A01 T10621082  RH  086%=      5-min Rain = 0
KBY1 090817Z 29006KT M06/M08 A3033 RMK A01 T10611082  RH  085%=      5-min Rain = 0
KBY1 090818Z 30006KT M06/M08 A3033 RMK A01 T10611082  RH  085%=      5-min Rain = 0
KBY1 090819Z 30006KT M06/M08 A3033 RMK A01 T10611082  RH  085%=      5-min Rain = 0
KBY1 090820Z 30006KT M06/M08 A3033 RMK A01 T10601081  RH  085%=      5-min Rain = 0
KBY1 090821Z 29006KT M06/M08 A3033 RMK A01 T10601081  RH  085%=      5-min Rain = 0
KBY1 090822Z 29005KT M06/M08 A3033 RMK A01 T10591080  RH  085%=      5-min Rain = 0
KBY1 090823Z 30004KT M06/M08 A3033 RMK A01 T10581080  RH  085%=      5-min Rain = 0
KBY1 090824Z 31005KT M06/M08 A3033 RMK A01 T10581080  RH  085%=      5-min Rain = 0
KBY1 090825Z 31005KT M06/M08 A3033 RMK A01 T10581080  RH  084%=      5-min Rain = 0
KBY1 090826Z 30004KT M06/M08 A3033 RMK A01 T10581080  RH  084%=      5-min Rain = 0
KBY1 090827Z 30004KT M06/M08 A3033 RMK A01 T10581080  RH  084%=      5-min Rain = 0
KBY1 090828Z 30005KT M06/M08 A3034 RMK A01 T10581080  RH  085%=      5-min Rain = 0
KBY1 090829Z 30006KT M06/M08 A3034 RMK A01 T10581080  RH  084%=      5-min Rain = 0
KBY1 090830Z 29005KT M06/M08 A3034 RMK A01 T10581080  RH  084%=      5-min Rain = 0
KBY1 090831Z 28006KT M06/M08 A3034 RMK A01 T10581081  RH  084%=      5-min Rain = 0
KBY1 090832Z 28005KT M06/M08 A3034 RMK A01 T10581082  RH  083%=      5-min Rain = 0
KBY1 090833Z 27004KT M06/M08 A3034 RMK A01 T10591082  RH  084%=      5-min Rain = 0
KBY1 090834Z 27003KT M06/M08 A3033 RMK A01 T10591082  RH  084%=      5-min Rain = 0
KBY1 090835Z 26003KT M06/M08 A3033 RMK A01 T10601082  RH  084%=      5-min Rain = 0
KBY1 090836Z 26003KT M06/M08 A3033 RMK A01 T10601081  RH  085%=      5-min Rain = 0
KBY1 090837Z 25002KT M06/M08 A3033 RMK A01 T10601081  RH  085%=      5-min Rain = 0
KBY1 090838Z 25002KT M06/M08 A3033 RMK A01 T10591080  RH  086%=      5-min Rain = 0
KBY1 090839Z 27002KT M06/M08 A3033 RMK A01 T10601080  RH  086%=      5-min Rain = 0
KBY1 090840Z 28003KT M06/M08 A3033 RMK A01 T10601080  RH  086%=      5-min Rain = 0
KBY1 090841Z 29003KT M06/M08 A3033 RMK A01 T10601080  RH  086%=      5-min Rain = 0
KBY1 090842Z 28004KT M06/M08 A3033 RMK A01 T10601079  RH  086%=      5-min Rain = 0
KBY1 090843Z 27004KT M06/M08 A3033 RMK A01 T10591079  RH  086%=      5-min Rain = 0
KBY1 090844Z 27004KT M06/M08 A3033 RMK A01 T10591078  RH  086%=      5-min Rain = 0
KBY1 090845Z 28004KT M06/M08 A3033 RMK A01 T10581078  RH  086%=      5-min Rain = 0
KBY1 090846Z 29004KT M06/M08 A3033 RMK A01 T10581079  RH  086%=      5-min Rain = 0
KBY1 090847Z 29004KT M06/M08 A3033 RMK A01 T10581078  RH  086%=      5-min Rain = 0
KBY1 090848Z 27003KT M06/M08 A3033 RMK A01 T10571078  RH  085%=      5-min Rain = 0
KBY1 090849Z 27002KT M06/M08 A3033 RMK A01 T10571078  RH  085%=      5-min Rain = 0
KBY1 090850Z 26002KT M06/M08 A3033 RMK A01 T10571078  RH  085%=      5-min Rain = 0
KBY1 090851Z 26002KT M06/M08 A3033 RMK A01 T10571079  RH  085%=      5-min Rain = 0
KBY1 090852Z 27002KT M06/M08 A3033 RMK A01 T10571078  RH  085%=      5-min Rain = 0
KBY1 090853Z 28003KT M06/M08 A3033 RMK A01 T10571077  RH  085%=      5-min Rain = 0
KBY1 090854Z 29005KT M06/M08 A3033 RMK A01 T10571077  RH  086%=      5-min Rain = 0
KBY1 090855Z 29005KT M06/M08 A3033 RMK A01 T10571077  RH  085%=      5-min Rain = 0
KBY1 090856Z 29005KT M06/M08 A3033 RMK A01 T10561077  RH  085%=      5-min Rain = 0
KBY1 090857Z 28004KT M06/M08 A3033 RMK A01 T10561078  RH  085%=      5-min Rain = 0
KBY1 090858Z 29003KT M06/M08 A3033 RMK A01 T10561078  RH  085%=      5-min Rain = 0
KBY1 090859Z 28003KT M06/M08 A3033 RMK A01 T10561077  RH  085%=      5-min Rain = 0
KBY1 090900Z 28004KT M06/M08 A3033 RMK A01 T10561077  RH  085%=      5-min Rain = 0
KBY1 090901Z 29004KT M06/M08 A3033 RMK A01 T10561077  RH  085%=      5-min Rain = 0
KBY1 090902Z 29005KT M06/M08 A3033 RMK A01 T10561077  RH  085%=      5-min Rain = 0
KBY1 090903Z 27004KT M06/M08 A3033 RMK A01 T10561076  RH  085%=      5-min Rain = 0
KBY1 090904Z 26003KT M06/M08 A3032 RMK A01 T10551076  RH  085%=      5-min Rain = 0
KBY1 090905Z 26002KT M05/M08 A3032 RMK A01 T10541075  RH  085%=      5-min Rain = 0
KBY1 090906Z 27002KT M05/M08 A3032 RMK A01 T10541075  RH  085%=      5-min Rain = 0
KBY1 090907Z 28002KT M05/M08 A3032 RMK A01 T10541075  RH  085%=      5-min Rain = 0
KBY1 090908Z 28003KT M05/M08 A3033 RMK A01 T10541076  RH  085%=      5-min Rain = 0
KBY1 090909Z 29003KT M05/M08 A3033 RMK A01 T10541076  RH  085%=      5-min Rain = 0
KBY1 090910Z 28002KT M05/M08 A3033 RMK A01 T10541075  RH  085%=      5-min Rain = 0
KBY1 090911Z 27002KT M05/M08 A3033 RMK A01 T10541076  RH  085%=      5-min Rain = 0
KBY1 090912Z 27003KT M05/M08 A3033 RMK A01 T10541076  RH  085%=      5-min Rain = 0
KBY1 090913Z 28004KT M05/M08 A3033 RMK A01 T10541075  RH  085%=      5-min Rain = 0
KBY1 090914Z 28004KT M05/M08 A3033 RMK A01 T10541075  RH  085%=      5-min Rain = 0
KBY1 090915Z 28003KT M05/M08 A3033 RMK A01 T10541075  RH  085%=      5-min Rain = 0
KBY1 090916Z 28002KT M05/M08 A3033 RMK A01 T10541075  RH  085%=      5-min Rain = 0
KBY1 090917Z 29002KT M05/M08 A3033 RMK A01 T10541075  RH  085%=      5-min Rain = 0
KBY1 090918Z 29002KT M05/M08 A3033 RMK A01 T10541076  RH  085%=      5-min Rain = 0
KBY1 090919Z 30002KT M06/M08 A3033 RMK A01 T10551076  RH  085%=      5-min Rain = 0
KBY1 090920Z 31003KT M06/M08 A3033 RMK A01 T10551076  RH  085%=      5-min Rain = 0
KBY1 090921Z 31003KT M06/M08 A3033 RMK A01 T10551076  RH  085%=      5-min Rain = 0
KBY1 090922Z 30004KT M06/M08 A3033 RMK A01 T10551076  RH  085%=      5-min Rain = 0
KBY1 090923Z 29005KT M06/M08 A3033 RMK A01 T10561076  RH  086%=      5-min Rain = 0
KBY1 090924Z 30004KT M06/M08 A3033 RMK A01 T10551075  RH  086%=      5-min Rain = 0
KBY1 090925Z 30004KT M05/M08 A3033 RMK A01 T10541075  RH  086%=      5-min Rain = 0
KBY1 090926Z 30004KT M06/M08 A3033 RMK A01 T10551076  RH  085%=      5-min Rain = 0
KBY1 090927Z 30005KT M05/M08 A3033 RMK A01 T10541075  RH  085%=      5-min Rain = 0
KBY1 090928Z 30005KT M06/M08 A3033 RMK A01 T10551076  RH  085%=      5-min Rain = 0
KBY1 090929Z 30005KT M06/M08 A3033 RMK A01 T10551076  RH  085%=      5-min Rain = 0
KBY1 090930Z 30005KT M06/M08 A3033 RMK A01 T10551076  RH  085%=      5-min Rain = 0
KBY1 090931Z 30005KT M06/M08 A3033 RMK A01 T10551076  RH  086%=      5-min Rain = 0
KBY1 090932Z 30005KT M06/M08 A3033 RMK A01 T10561076  RH  086%=      5-min Rain = 0
KBY1 090933Z 30005KT M06/M08 A3033 RMK A01 T10561075  RH  086%=      5-min Rain = 0
KBY1 090934Z 30006KT M06/M08 A3033 RMK A01 T10551075  RH  086%=      5-min Rain = 0
KBY1 090935Z 29005KT M06/M08 A3033 RMK A01 T10551075  RH  086%=      5-min Rain = 0
KBY1 090936Z 29005KT M06/M08 A3033 RMK A01 T10551076  RH  086%=      5-min Rain = 0
KBY1 090937Z 29004KT M06/M08 A3033 RMK A01 T10551075  RH  086%=      5-min Rain = 0
KBY1 090938Z 29005KT M05/M07 A3033 RMK A01 T10541074  RH  086%=      5-min Rain = 0
KBY1 090939Z 30006KT M05/M07 A3033 RMK A01 T10541074  RH  086%=      5-min Rain = 0
KBY1 090940Z 30006KT M05/M07 A3033 RMK A01 T10531074  RH  085%=      5-min Rain = 0
KBY1 090941Z 29005KT M05/M07 A3033 RMK A01 T10531074  RH  085%=      5-min Rain = 0
KBY1 090942Z 29006KT M05/M07 A3033 RMK A01 T10531074  RH  085%=      5-min Rain = 0
KBY1 090943Z 29006KT M05/M07 A3033 RMK A01 T10521073  RH  085%=      5-min Rain = 0
KBY1 090944Z 30007KT M05/M07 A3033 RMK A01 T10521073  RH  085%=      5-min Rain = 0
KBY1 090945Z 30007KT M05/M07 A3033 RMK A01 T10521073  RH  085%=      5-min Rain = 0
KBY1 090946Z 30005KT M05/M07 A3033 RMK A01 T10511073  RH  085%=      5-min Rain = 0
KBY1 090947Z 30005KT M05/M07 A3033 RMK A01 T10511073  RH  084%=      5-min Rain = 0
KBY1 090948Z 30006KT M05/M07 A3033 RMK A01 T10501073  RH  084%=      5-min Rain = 0
KBY1 090949Z 30006KT M05/M07 A3033 RMK A01 T10511073  RH  084%=      5-min Rain = 0
KBY1 090950Z 30006KT M05/M07 A3033 RMK A01 T10501072  RH  084%=      5-min Rain = 0
KBY1 090951Z 30006KT M05/M07 A3033 RMK A01 T10501072  RH  084%=      5-min Rain = 0
KBY1 090952Z 30006KT M05/M07 A3033 RMK A01 T10491072  RH  084%=      5-min Rain = 0
KBY1 090953Z 29006KT M05/M07 A3033 RMK A01 T10491072  RH  084%=      5-min Rain = 0
KBY1 090954Z 29005KT M05/M07 A3033 RMK A01 T10501072  RH  084%=      5-min Rain = 0
KBY1 090955Z 30005KT M05/M07 A3033 RMK A01 T10501072  RH  084%=      5-min Rain = 0
KBY1 090956Z 30005KT M05/M07 A3033 RMK A01 T10501072  RH  084%=      5-min Rain = 0
KBY1 090957Z 29004KT M05/M07 A3033 RMK A01 T10501072  RH  085%=      5-min Rain = 0
KBY1 090958Z 29005KT M05/M07 A3033 RMK A01 T10491071  RH  085%=      5-min Rain = 0
KBY1 090959Z 28006KT M05/M07 A3033 RMK A01 T10491071  RH  085%=      5-min Rain = 0
KBY1 091000Z 28005KT M05/M07 A3033 RMK A01 T10491071  RH  084%=      5-min Rain = 0
KBY1 091001Z 27004KT M05/M07 A3033 RMK A01 T10491071  RH  084%=      5-min Rain = 0
KBY1 091002Z 28004KT M05/M07 A3033 RMK A01 T10481071  RH  084%=      5-min Rain = 0
KBY1 091003Z 27004KT M05/M07 A3033 RMK A01 T10491071  RH  084%=      5-min Rain = 0
KBY1 091004Z 28004KT M05/M07 A3033 RMK A01 T10491071  RH  084%=      5-min Rain = 0
KBY1 091005Z 28004KT M05/M07 A3033 RMK A01 T10491071  RH  084%=      5-min Rain = 0
KBY1 091006Z 28003KT M05/M07 A3033 RMK A01 T10481071  RH  084%=      5-min Rain = 0
KBY1 091007Z 28002KT M05/M07 A3033 RMK A01 T10491071  RH  084%=      5-min Rain = 0
KBY1 091008Z 28003KT M05/M07 A3033 RMK A01 T10491071  RH  084%=      5-min Rain = 0
KBY1 091009Z 28002KT M05/M07 A3033 RMK A01 T10491071  RH  084%=      5-min Rain = 0
KBY1 091010Z 28004KT M05/M07 A3033 RMK A01 T10481071  RH  084%=      5-min Rain = 0
KBY1 091011Z 28003KT M05/M07 A3033 RMK A01 T10491071  RH  084%=      5-min Rain = 0
KBY1 091012Z 28002KT M05/M07 A3033 RMK A01 T10491071  RH  084%=      5-min Rain = 0
KBY1 091013Z 29004KT M05/M07 A3033 RMK A01 T10481071  RH  084%=      5-min Rain = 0
KBY1 091014Z 28003KT M05/M07 A3033 RMK A01 T10491071  RH  084%=      5-min Rain = 0
KBY1 091015Z 27002KT M05/M07 A3033 RMK A01 T10491071  RH  085%=      5-min Rain = 0
KBY1 091016Z 26002KT M05/M07 A3033 RMK A01 T10491071  RH  085%=      5-min Rain = 0
KBY1 091017Z 27002KT M05/M07 A3033 RMK A01 T10491070  RH  085%=      5-min Rain = 0
KBY1 091018Z 27002KT M05/M07 A3033 RMK A01 T10491070  RH  085%=      5-min Rain = 0
KBY1 091019Z 26002KT M05/M07 A3033 RMK A01 T10491070  RH  085%=      5-min Rain = 0
KBY1 091020Z 28002KT M05/M07 A3033 RMK A01 T10491070  RH  085%=      5-min Rain = 0
KBY1 091021Z 27001KT M05/M07 A3033 RMK A01 T10491070  RH  085%=      5-min Rain = 0
KBY1 091022Z 27002KT M05/M07 A3033 RMK A01 T10501070  RH  086%=      5-min Rain = 0
KBY1 091023Z 27001KT M05/M07 A3033 RMK A01 T10501070  RH  086%=      5-min Rain = 0
KBY1 091024Z 27001KT M05/M07 A3033 RMK A01 T10501070  RH  086%=      5-min Rain = 0
KBY1 091025Z 28001KT M05/M07 A3033 RMK A01 T10501070  RH  086%=      5-min Rain = 0
KBY1 091026Z 27000KT M05/M07 A3033 RMK A01 T10501069  RH  086%=      5-min Rain = 0
KBY1 091027Z 29001KT M05/M07 A3033 RMK A01 T10501069  RH  086%=      5-min Rain = 0
KBY1 091028Z 28002KT M05/M07 A3033 RMK A01 T10501070  RH  086%=      5-min Rain = 0
KBY1 091029Z 27001KT M05/M07 A3033 RMK A01 T10501070  RH  086%=      5-min Rain = 0
KBY1 091030Z 26000KT M05/M07 A3032 RMK A01 T10501070  RH  086%=      5-min Rain = 0
KBY1 091031Z 28001KT M05/M07 A3032 RMK A01 T10501070  RH  086%=      5-min Rain = 0
KBY1 091032Z 27001KT M05/M07 A3033 RMK A01 T10501070  RH  086%=      5-min Rain = 0
KBY1 091033Z 28002KT M05/M07 A3033 RMK A01 T10511071  RH  086%=      5-min Rain = 0
KBY1 091034Z 27002KT M05/M07 A3032 RMK A01 T10511071  RH  086%=      5-min Rain = 0
KBY1 091035Z 28002KT M05/M07 A3032 RMK A01 T10511070  RH  086%=      5-min Rain = 0
KBY1 091036Z 28001KT M05/M07 A3032 RMK A01 T10511070  RH  086%=      5-min Rain = 0
KBY1 091037Z 28001KT M05/M07 A3032 RMK A01 T10511071  RH  086%=      5-min Rain = 0
KBY1 091038Z 28002KT M05/M07 A3032 RMK A01 T10511071  RH  086%=      5-min Rain = 0
KBY1 091039Z 30001KT M05/M07 A3032 RMK A01 T10511070  RH  086%=      5-min Rain = 0
KBY1 091040Z 30002KT M05/M07 A3032 RMK A01 T10511071  RH  086%=      5-min Rain = 0
KBY1 091041Z 29002KT M05/M07 A3032 RMK A01 T10511071  RH  086%=      5-min Rain = 0
KBY1 091042Z 30003KT M05/M07 A3032 RMK A01 T10521071  RH  086%=      5-min Rain = 0
KBY1 091043Z 30003KT M05/M07 A3032 RMK A01 T10521071  RH  086%=      5-min Rain = 0
KBY1 091044Z 30003KT M05/M07 A3032 RMK A01 T10521071  RH  086%=      5-min Rain = 0
KBY1 091045Z 30003KT M05/M07 A3032 RMK A01 T10521071  RH  087%=      5-min Rain = 0
KBY1 091046Z 30003KT M05/M07 A3032 RMK A01 T10521071  RH  087%=      5-min Rain = 0
KBY1 091047Z 30003KT M05/M07 A3032 RMK A01 T10521071  RH  087%=      5-min Rain = 0
KBY1 091048Z 30003KT M05/M07 A3032 RMK A01 T10521071  RH  087%=      5-min Rain = 0
KBY1 091049Z 30003KT M05/M07 A3032 RMK A01 T10521071  RH  087%=      5-min Rain = 0
KBY1 091050Z 31003KT M05/M07 A3032 RMK A01 T10521071  RH  087%=      5-min Rain = 0
KBY1 091051Z 31003KT M05/M07 A3032 RMK A01 T10521071  RH  086%=      5-min Rain = 0
KBY1 091052Z 31004KT M05/M07 A3032 RMK A01 T10521071  RH  086%=      5-min Rain = 0
KBY1 091053Z 31004KT M05/M07 A3032 RMK A01 T10521072  RH  086%=      5-min Rain = 0
KBY1 091054Z 30004KT M05/M07 A3032 RMK A01 T10521072  RH  086%=      5-min Rain = 0
KBY1 091055Z 29004KT M05/M07 A3032 RMK A01 T10521071  RH  086%=      5-min Rain = 0
KBY1 091056Z 29003KT M05/M07 A3032 RMK A01 T10521072  RH  086%=      5-min Rain = 0
KBY1 091057Z 29003KT M05/M07 A3032 RMK A01 T10521071  RH  086%=      5-min Rain = 0
KBY1 091058Z 30003KT M05/M07 A3032 RMK A01 T10521072  RH  086%=      5-min Rain = 0
KBY1 091059Z 29002KT M05/M07 A3032 RMK A01 T10521071  RH  086%=      5-min Rain = 0
KBY1 091100Z 30003KT M05/M07 A3032 RMK A01 T10511071  RH  086%=      5-min Rain = 0
KBY1 091101Z 29004KT M05/M07 A3032 RMK A01 T10511071  RH  086%=      5-min Rain = 0
KBY1 091102Z 29004KT M05/M07 A3032 RMK A01 T10511071  RH  086%=      5-min Rain = 0
KBY1 091103Z 29003KT M05/M07 A3032 RMK A01 T10521072  RH  086%=      5-min Rain = 0
KBY1 091104Z 30003KT M05/M07 A3032 RMK A01 T10511072  RH  086%=      5-min Rain = 0
KBY1 091105Z 30003KT M05/M07 A3032 RMK A01 T10511072  RH  086%=      5-min Rain = 0
KBY1 091106Z 30004KT M05/M07 A3032 RMK A01 T10521072  RH  085%=      5-min Rain = 0
KBY1 091107Z 29004KT M05/M07 A3032 RMK A01 T10521073  RH  086%=      5-min Rain = 0
KBY1 091108Z 29003KT M05/M07 A3032 RMK A01 T10521072  RH  086%=      5-min Rain = 0
KBY1 091109Z 30002KT M05/M07 A3032 RMK A01 T10521071  RH  086%=      5-min Rain = 0
KBY1 091110Z 29002KT M05/M07 A3032 RMK A01 T10521072  RH  086%=      5-min Rain = 0
KBY1 091111Z 29002KT M05/M07 A3032 RMK A01 T10521072  RH  086%=      5-min Rain = 0
KBY1 091112Z 29003KT M05/M07 A3032 RMK A01 T10521072  RH  086%=      5-min Rain = 0
KBY1 091113Z 29003KT M05/M07 A3032 RMK A01 T10521072  RH  086%=      5-min Rain = 0
KBY1 091114Z 29003KT M05/M07 A3032 RMK A01 T10521072  RH  086%=      5-min Rain = 0
KBY1 091115Z 29002KT M05/M07 A3032 RMK A01 T10521072  RH  086%=      5-min Rain = 0
KBY1 091116Z 30002KT M05/M07 A3032 RMK A01 T10531074  RH  085%=      5-min Rain = 0
KBY1 091117Z 30002KT M06/M08 A3032 RMK A01 T10561080  RH  084%=      5-min Rain = 0
KBY1 091118Z 31002KT M06/M08 A3032 RMK A01 T10591082  RH  083%=      5-min Rain = 0
KBY1 091119Z 30003KT M06/M08 A3032 RMK A01 T10601083  RH  084%=      5-min Rain = 0
KBY1 091120Z 30003KT M06/M08 A3032 RMK A01 T10621084  RH  084%=      5-min Rain = 0
KBY1 091121Z 30003KT M06/M08 A3032 RMK A01 T10621082  RH  086%=      5-min Rain = 0
KBY1 091122Z 30003KT M06/M08 A3032 RMK A01 T10631081  RH  087%=      5-min Rain = 0
KBY1 091123Z 30003KT M06/M08 A3032 RMK A01 T10631080  RH  088%=      5-min Rain = 0
KBY1 091124Z 30004KT M06/M08 A3032 RMK A01 T10621078  RH  089%=      5-min Rain = 0
KBY1 091125Z 30003KT M06/M07 A3032 RMK A01 T10591073  RH  090%=      5-min Rain = 0
KBY1 091126Z 30004KT M06/M07 A3032 RMK A01 T10581071  RH  090%=      5-min Rain = 0
KBY1 091127Z 29004KT M06/M07 A3032 RMK A01 T10571071  RH  090%=      5-min Rain = 0
KBY1 091128Z 29003KT M06/M07 A3032 RMK A01 T10551070  RH  090%=      5-min Rain = 0
KBY1 091129Z 29003KT M05/M07 A3033 RMK A01 T10541069  RH  089%=      5-min Rain = 0
KBY1 091130Z 29003KT M05/M07 A3033 RMK A01 T10531069  RH  089%=      5-min Rain = 0
KBY1 091131Z 29005KT M05/M07 A3033 RMK A01 T10531069  RH  088%=      5-min Rain = 0
KBY1 091132Z 29004KT M05/M07 A3033 RMK A01 T10521070  RH  088%=      5-min Rain = 0
KBY1 091133Z 29005KT M05/M07 A3033 RMK A01 T10521070  RH  087%=      5-min Rain = 0
KBY1 091134Z 29004KT M05/M07 A3033 RMK A01 T10521071  RH  087%=      5-min Rain = 0
KBY1 091135Z 29004KT M05/M07 A3033 RMK A01 T10531071  RH  087%=      5-min Rain = 0
KBY1 091136Z 28003KT M05/M07 A3033 RMK A01 T10531071  RH  087%=      5-min Rain = 0
KBY1 091137Z 29004KT M05/M07 A3033 RMK A01 T10531071  RH  087%=      5-min Rain = 0
KBY1 091138Z 29004KT M05/M07 A3033 RMK A01 T10531071  RH  087%=      5-min Rain = 0
KBY1 091139Z 29004KT M05/M07 A3033 RMK A01 T10531072  RH  087%=      5-min Rain = 0
KBY1 091140Z 29004KT M05/M07 A3033 RMK A01 T10531072  RH  087%=      5-min Rain = 0
KBY1 091141Z 29003KT M05/M07 A3033 RMK A01 T10541072  RH  087%=      5-min Rain = 0
KBY1 091142Z 29003KT M05/M07 A3033 RMK A01 T10541072  RH  087%=      5-min Rain = 0
KBY1 091143Z 29002KT M05/M07 A3033 RMK A01 T10531071  RH  087%=      5-min Rain = 0
KBY1 091144Z 30002KT M05/M07 A3033 RMK A01 T10531071  RH  087%=      5-min Rain = 0
KBY1 091145Z 30003KT M05/M07 A3033 RMK A01 T10531072  RH  087%=      5-min Rain = 0
KBY1 091146Z 32002KT M05/M07 A3033 RMK A01 T10541073  RH  087%=      5-min Rain = 0
KBY1 091147Z 33001KT M06/M08 A3033 RMK A01 T10561075  RH  086%=      5-min Rain = 0
KBY1 091148Z 32001KT M06/M08 A3033 RMK A01 T10571077  RH  086%=      5-min Rain = 0
KBY1 091149Z 32001KT M06/M08 A3033 RMK A01 T10591078  RH  086%=      5-min Rain = 0
KBY1 091150Z 00000KT M06/M08 A3033 RMK A01 T10601079  RH  086%=      5-min Rain = 0
KBY1 091151Z 03000KT M06/M08 A3033 RMK A01 T10601079  RH  087%=      5-min Rain = 0
KBY1 091152Z 00000KT M06/M08 A3033 RMK A01 T10621081  RH  087%=      5-min Rain = 0
KBY1 091153Z 00000KT M06/M08 A3033 RMK A01 T10631082  RH  086%=      5-min Rain = 0
KBY1 091154Z 00000KT M07/M08 A3033 RMK A01 T10651084  RH  086%=      5-min Rain = 0
KBY1 091155Z 00000KT M07/M08 A3033 RMK A01 T10661084  RH  087%=      5-min Rain = 0
KBY1 091156Z 00000KT M07/M09 A3033 RMK A01 T10671085  RH  087%=      5-min Rain = 0
KBY1 091157Z 00000KT M07/M09 A3033 RMK A01 T10681086  RH  087%=      5-min Rain = 0
KBY1 091158Z 00000KT M07/M09 A3033 RMK A01 T10691086  RH  088%=      5-min Rain = 0
KBY1 091159Z 00000KT M07/M09 A3033 RMK A01 T10711087  RH  088%=      5-min Rain = 0
KBY1 091200Z 00000KT M07/M09 A3033 RMK A01 T10711087  RH  089%=      5-min Rain = 0
KBY1 091201Z 00000KT M07/M09 A3033 RMK A01 T10711085  RH  090%=      5-min Rain = 0
KBY1 091202Z 27000KT M07/M08 A3033 RMK A01 T10701083  RH  091%=      5-min Rain = 0
KBY1 091203Z 29000KT M07/M08 A3033 RMK A01 T10701082  RH  091%=      5-min Rain = 0
KBY1 091204Z 30001KT M07/M08 A3033 RMK A01 T10681079  RH  092%=      5-min Rain = 0
KBY1 091205Z 30000KT M07/M08 A3033 RMK A01 T10671077  RH  092%=      5-min Rain = 0
KBY1 091206Z 00000KT M07/M08 A3033 RMK A01 T10671077  RH  092%=      5-min Rain = 0
KBY1 091207Z 00000KT M07/M08 A3033 RMK A01 T10671078  RH  092%=      5-min Rain = 0
KBY1 091208Z 00000KT M07/M08 A3033 RMK A01 T10671079  RH  091%=      5-min Rain = 0
KBY1 091209Z 00000KT M07/M08 A3033 RMK A01 T10691081  RH  091%=      5-min Rain = 0
KBY1 091210Z 32000KT M07/M08 A3034 RMK A01 T10691082  RH  091%=      5-min Rain = 0
KBY1 091211Z 33001KT M07/M08 A3034 RMK A01 T10691082  RH  091%=      5-min Rain = 0
KBY1 091212Z 31001KT M07/M08 A3034 RMK A01 T10691081  RH  091%=      5-min Rain = 0
KBY1 091213Z 32001KT M07/M08 A3034 RMK A01 T10681080  RH  092%=      5-min Rain = 0
KBY1 091214Z 32000KT M07/M08 A3034 RMK A01 T10691081  RH  091%=      5-min Rain = 0
KBY1 091215Z 32000KT M07/M08 A3034 RMK A01 T10701083  RH  091%=      5-min Rain = 0
KBY1 091216Z 32000KT M07/M08 A3034 RMK A01 T10711084  RH  091%=      5-min Rain = 0
KBY1 091217Z 32001KT M07/M08 A3034 RMK A01 T10711084  RH  091%=      5-min Rain = 0
KBY1 091218Z 31001KT M07/M08 A3034 RMK A01 T10721084  RH  091%=      5-min Rain = 0
KBY1 091219Z 31000KT M07/M08 A3034 RMK A01 T10721084  RH  091%=      5-min Rain = 0
KBY1 091220Z 00000KT M07/M08 A3034 RMK A01 T10721084  RH  091%=      5-min Rain = 0
KBY1 091221Z 00000KT M07/M08 A3034 RMK A01 T10711083  RH  091%=      5-min Rain = 0
KBY1 091222Z 10000KT M07/M08 A3034 RMK A01 T10721083  RH  091%=      5-min Rain = 0
KBY1 091223Z 14000KT M07/M08 A3034 RMK A01 T10721083  RH  091%=      5-min Rain = 0
KBY1 091224Z 20001KT M07/M08 A3034 RMK A01 T10721084  RH  091%=      5-min Rain = 0
KBY1 091225Z 22001KT M07/M09 A3034 RMK A01 T10741087  RH  091%=      5-min Rain = 0
KBY1 091226Z 25000KT M08/M09 A3034 RMK A01 T10771091  RH  090%=      5-min Rain = 0
KBY1 091227Z 00000KT M08/M09 A3035 RMK A01 T10781093  RH  089%=      5-min Rain = 0
KBY1 091228Z 24001KT M08/M09 A3035 RMK A01 T10791093  RH  090%=      5-min Rain = 0
KBY1 091229Z 24001KT M08/M09 A3035 RMK A01 T10781091  RH  091%=      5-min Rain = 0
KBY1 091230Z 24001KT M08/M09 A3035 RMK A01 T10761088  RH  092%=      5-min Rain = 0
KBY1 091231Z 21001KT M08/M09 A3035 RMK A01 T10761088  RH  092%=      5-min Rain = 0
KBY1 091232Z 21000KT M08/M09 A3035 RMK A01 T10771088  RH  092%=      5-min Rain = 0
KBY1 091233Z 23000KT M08/M09 A3035 RMK A01 T10771088  RH  092%=      5-min Rain = 0
KBY1 091234Z 25001KT M08/M09 A3035 RMK A01 T10771088  RH  092%=      5-min Rain = 0
KBY1 091235Z 26001KT M08/M09 A3035 RMK A01 T10771088  RH  092%=      5-min Rain = 0
KBY1 091236Z 26001KT M08/M09 A3035 RMK A01 T10761086  RH  093%=      5-min Rain = 0
KBY1 091237Z 27002KT M07/M08 A3035 RMK A01 T10741084  RH  093%=      5-min Rain = 0
KBY1 091238Z 28002KT M07/M08 A3035 RMK A01 T10731082  RH  093%=      5-min Rain = 0
KBY1 091239Z 29003KT M07/M08 A3035 RMK A01 T10711080  RH  094%=      5-min Rain = 0
KBY1 091240Z 29003KT M07/M08 A3035 RMK A01 T10691076  RH  094%=      5-min Rain = 0
KBY1 091241Z 29004KT M07/M08 A3035 RMK A01 T10671075  RH  094%=      5-min Rain = 0
KBY1 091242Z 29004KT M07/M07 A3035 RMK A01 T10661074  RH  094%=      5-min Rain = 0
KBY1 091243Z 29004KT M07/M07 A3035 RMK A01 T10651074  RH  093%=      5-min Rain = 0
KBY1 091244Z 29004KT M06/M07 A3035 RMK A01 T10641074  RH  093%=      5-min Rain = 0
KBY1 091245Z 30005KT M06/M07 A3035 RMK A01 T10631073  RH  093%=      5-min Rain = 0
KBY1 091246Z 29005KT M06/M07 A3035 RMK A01 T10621072  RH  092%=      5-min Rain = 0
KBY1 091247Z 29005KT M06/M07 A3036 RMK A01 T10611072  RH  092%=      5-min Rain = 0
KBY1 091248Z 29005KT M06/M07 A3036 RMK A01 T10601073  RH  091%=      5-min Rain = 0
KBY1 091249Z 29006KT M06/M07 A3036 RMK A01 T10601073  RH  091%=      5-min Rain = 0
KBY1 091250Z 29006KT M06/M07 A3036 RMK A01 T10601073  RH  090%=      5-min Rain = 0
KBY1 091251Z 29007KT M06/M07 A3036 RMK A01 T10591073  RH  090%=      5-min Rain = 0
KBY1 091252Z 29007KT M06/M07 A3036 RMK A01 T10591073  RH  090%=      5-min Rain = 0
KBY1 091253Z 28006KT M06/M07 A3036 RMK A01 T10591074  RH  089%=      5-min Rain = 0
KBY1 091254Z 29007KT M06/M08 A3036 RMK A01 T10601075  RH  089%=      5-min Rain = 0
KBY1 091255Z 28006KT M06/M08 A3036 RMK A01 T10601075  RH  089%=      5-min Rain = 0
KBY1 091256Z 29005KT M06/M08 A3036 RMK A01 T10601075  RH  089%=      5-min Rain = 0
KBY1 091257Z 29005KT M06/M08 A3036 RMK A01 T10601075  RH  089%=      5-min Rain = 0
KBY1 091258Z 29005KT M06/M08 A3036 RMK A01 T10601075  RH  089%=      5-min Rain = 0
KBY1 091259Z 29005KT M06/M08 A3036 RMK A01 T10591075  RH  089%=      5-min Rain = 0
KBY1 091300Z 30004KT M06/M08 A3036 RMK A01 T10601075  RH  089%=      5-min Rain = 0
KBY1 091301Z 29005KT M06/M08 A3036 RMK A01 T10601075  RH  089%=      5-min Rain = 0
KBY1 091302Z 29004KT M06/M08 A3036 RMK A01 T10601076  RH  089%=      5-min Rain = 0
KBY1 091303Z 29005KT M06/M08 A3036 RMK A01 T10601076  RH  089%=      5-min Rain = 0
KBY1 091304Z 29006KT M06/M08 A3036 RMK A01 T10611076  RH  089%=      5-min Rain = 0
KBY1 091305Z 29006KT M06/M08 A3036 RMK A01 T10611077  RH  089%=      5-min Rain = 0
KBY1 091306Z 29005KT M06/M08 A3036 RMK A01 T10611077  RH  089%=      5-min Rain = 0
KBY1 091307Z 29006KT M06/M08 A3036 RMK A01 T10621078  RH  089%=      5-min Rain = 0
KBY1 091308Z 29005KT M06/M08 A3036 RMK A01 T10621078  RH  089%=      5-min Rain = 0
KBY1 091309Z 29004KT M06/M08 A3036 RMK A01 T10621078  RH  089%=      5-min Rain = 0
KBY1 091310Z 29004KT M06/M08 A3036 RMK A01 T10631078  RH  089%=      5-min Rain = 0
KBY1 091311Z 29005KT M06/M08 A3036 RMK A01 T10631078  RH  089%=      5-min Rain = 0
KBY1 091312Z 28004KT M06/M08 A3036 RMK A01 T10631078  RH  089%=      5-min Rain = 0
KBY1 091313Z 29005KT M06/M08 A3036 RMK A01 T10631078  RH  089%=      5-min Rain = 0
KBY1 091314Z 29006KT M06/M08 A3036 RMK A01 T10631079  RH  089%=      5-min Rain = 0
KBY1 091315Z 29005KT M06/M08 A3036 RMK A01 T10631078  RH  089%=      5-min Rain = 0
KBY1 091316Z 29005KT M06/M08 A3036 RMK A01 T10631078  RH  089%=      5-min Rain = 0
KBY1 091317Z 29004KT M06/M08 A3036 RMK A01 T10641079  RH  089%=      5-min Rain = 0
KBY1 091318Z 28004KT M06/M08 A3036 RMK A01 T10641080  RH  089%=      5-min Rain = 0
KBY1 091319Z 28005KT M07/M08 A3036 RMK A01 T10651080  RH  089%=      5-min Rain = 0
KBY1 091320Z 29005KT M07/M08 A3036 RMK A01 T10651080  RH  089%=      5-min Rain = 0
KBY1 091321Z 28004KT M07/M08 A3036 RMK A01 T10651081  RH  089%=      5-min Rain = 0
KBY1 091322Z 29004KT M07/M08 A3037 RMK A01 T10661081  RH  089%=      5-min Rain = 0
KBY1 091323Z 29004KT M07/M08 A3037 RMK A01 T10661081  RH  089%=      5-min Rain = 0
KBY1 091324Z 28004KT M07/M08 A3037 RMK A01 T10661081  RH  089%=      5-min Rain = 0
KBY1 091325Z 28004KT M07/M08 A3036 RMK A01 T10661081  RH  089%=      5-min Rain = 0
KBY1 091326Z 27003KT M07/M08 A3037 RMK A01 T10661081  RH  089%=      5-min Rain = 0
KBY1 091327Z 28003KT M07/M08 A3037 RMK A01 T10661081  RH  089%=      5-min Rain = 0
KBY1 091328Z 27003KT M07/M08 A3037 RMK A01 T10671082  RH  089%=      5-min Rain = 0
KBY1 091329Z 28003KT M07/M08 A3037 RMK A01 T10671082  RH  089%=      5-min Rain = 0
KBY1 091330Z 27004KT M07/M08 A3037 RMK A01 T10681083  RH  089%=      5-min Rain = 0
KBY1 091331Z 27004KT M07/M08 A3037 RMK A01 T10681083  RH  089%=      5-min Rain = 0
KBY1 091332Z 29003KT M07/M08 A3037 RMK A01 T10681083  RH  089%=      5-min Rain = 0
KBY1 091333Z 29003KT M07/M08 A3037 RMK A01 T10681083  RH  089%=      5-min Rain = 0
KBY1 091334Z 29003KT M07/M08 A3037 RMK A01 T10691083  RH  089%=      5-min Rain = 0
KBY1 091335Z 29003KT M07/M08 A3037 RMK A01 T10691084  RH  089%=      5-min Rain = 0
KBY1 091336Z 29002KT M07/M08 A3037 RMK A01 T10701084  RH  089%=      5-min Rain = 0
KBY1 091337Z 28003KT M07/M08 A3037 RMK A01 T10701084  RH  089%=      5-min Rain = 0
KBY1 091338Z 29003KT M07/M08 A3037 RMK A01 T10701084  RH  090%=      5-min Rain = 0
KBY1 091339Z 28004KT M07/M08 A3037 RMK A01 T10701084  RH  090%=      5-min Rain = 0
KBY1 091340Z 28003KT M07/M08 A3037 RMK A01 T10701084  RH  090%=      5-min Rain = 0
KBY1 091341Z 27003KT M07/M08 A3037 RMK A01 T10701084  RH  090%=      5-min Rain = 0
KBY1 091342Z 28003KT M07/M08 A3037 RMK A01 T10691083  RH  090%=      5-min Rain = 0
KBY1 091343Z 27004KT M07/M08 A3037 RMK A01 T10691084  RH  090%=      5-min Rain = 0
KBY1 091344Z 27004KT M07/M08 A3037 RMK A01 T10691084  RH  090%=      5-min Rain = 0
KBY1 091345Z 27003KT M07/M08 A3037 RMK A01 T10681083  RH  090%=      5-min Rain = 0
KBY1 091346Z 28003KT M07/M08 A3037 RMK A01 T10681083  RH  090%=      5-min Rain = 0
KBY1 091347Z 28004KT M07/M08 A3037 RMK A01 T10681083  RH  089%=      5-min Rain = 0
KBY1 091348Z 28003KT M07/M08 A3037 RMK A01 T10681083  RH  089%=      5-min Rain = 0
KBY1 091349Z 28004KT M07/M08 A3037 RMK A01 T10681083  RH  089%=      5-min Rain = 0
KBY1 091350Z 28004KT M07/M08 A3037 RMK A01 T10691083  RH  090%=      5-min Rain = 0
KBY1 091351Z 28003KT M07/M08 A3037 RMK A01 T10681083  RH  090%=      5-min Rain = 0
KBY1 091352Z 28004KT M07/M08 A3037 RMK A01 T10681082  RH  090%=      5-min Rain = 0
KBY1 091353Z 28004KT M07/M08 A3037 RMK A01 T10671082  RH  090%=      5-min Rain = 0
KBY1 091354Z 28004KT M07/M08 A3037 RMK A01 T10681082  RH  090%=      5-min Rain = 0
KBY1 091355Z 28004KT M07/M08 A3037 RMK A01 T10671082  RH  090%=      5-min Rain = 0
KBY1 091356Z 28003KT M07/M08 A3037 RMK A01 T10671082  RH  090%=      5-min Rain = 0
KBY1 091357Z 28004KT M07/M08 A3038 RMK A01 T10671082  RH  089%=      5-min Rain = 0
KBY1 091358Z 28005KT M07/M08 A3038 RMK A01 T10671082  RH  089%=      5-min Rain = 0
KBY1 091359Z 28005KT M07/M08 A3038 RMK A01 T10671082  RH  089%=      5-min Rain = 0
KBY1 091400Z 27004KT M07/M08 A3038 RMK A01 T10671082  RH  089%=      5-min Rain = 0
KBY1 091401Z 28003KT M07/M08 A3038 RMK A01 T10671082  RH  089%=      5-min Rain = 0
KBY1 091402Z 28003KT M07/M08 A3038 RMK A01 T10671082  RH  089%=      5-min Rain = 0
KBY1 091403Z 29003KT M07/M08 A3038 RMK A01 T10671083  RH  089%=      5-min Rain = 0
KBY1 091404Z 29002KT M07/M08 A3038 RMK A01 T10671082  RH  089%=      5-min Rain = 0
KBY1 091405Z 29003KT M07/M08 A3038 RMK A01 T10681083  RH  089%=      5-min Rain = 0
KBY1 091406Z 30003KT M07/M08 A3038 RMK A01 T10681083  RH  089%=      5-min Rain = 0
KBY1 091407Z 28002KT M07/M08 A3038 RMK A01 T10671082  RH  089%=      5-min Rain = 0
KBY1 091408Z 28002KT M07/M08 A3038 RMK A01 T10671082  RH  089%=      5-min Rain = 0
KBY1 091409Z 28002KT M07/M08 A3038 RMK A01 T10661081  RH  089%=      5-min Rain = 0
KBY1 091410Z 29001KT M07/M08 A3038 RMK A01 T10661081  RH  089%=      5-min Rain = 0
KBY1 091411Z 28002KT M07/M08 A3038 RMK A01 T10661081  RH  089%=      5-min Rain = 0
KBY1 091412Z 29002KT M07/M08 A3038 RMK A01 T10651081  RH  089%=      5-min Rain = 0
KBY1 091413Z 28002KT M07/M08 A3038 RMK A01 T10651080  RH  089%=      5-min Rain = 0
KBY1 091414Z 29003KT M06/M08 A3038 RMK A01 T10641080  RH  089%=      5-min Rain = 0
KBY1 091415Z 28002KT M06/M08 A3038 RMK A01 T10641080  RH  089%=      5-min Rain = 0
KBY1 091416Z 28004KT M06/M08 A3038 RMK A01 T10631080  RH  088%=      5-min Rain = 0
KBY1 091417Z 28003KT M06/M08 A3038 RMK A01 T10631079  RH  088%=      5-min Rain = 0
KBY1 091418Z 28003KT M06/M08 A3038 RMK A01 T10631079  RH  088%=      5-min Rain = 0
KBY1 091419Z 28003KT M06/M08 A3038 RMK A01 T10631079  RH  088%=      5-min Rain = 0
KBY1 091420Z 29003KT M06/M08 A3038 RMK A01 T10621079  RH  088%=      5-min Rain = 0
KBY1 091421Z 28003KT M06/M08 A3038 RMK A01 T10621078  RH  088%=      5-min Rain = 0
KBY1 091422Z 29004KT M06/M08 A3038 RMK A01 T10611078  RH  088%=      5-min Rain = 0
KBY1 091423Z 28004KT M06/M08 A3038 RMK A01 T10601077  RH  088%=      5-min Rain = 0
KBY1 091424Z 28005KT M06/M08 A3038 RMK A01 T10601077  RH  088%=      5-min Rain = 0
KBY1 091425Z 27003KT M06/M08 A3038 RMK A01 T10591077  RH  088%=      5-min Rain = 0
KBY1 091426Z 27004KT M06/M08 A3038 RMK A01 T10591076  RH  088%=      5-min Rain = 0
KBY1 091427Z 27004KT M06/M08 A3038 RMK A01 T10581076  RH  087%=      5-min Rain = 0
KBY1 091428Z 28005KT M06/M08 A3038 RMK A01 T10591077  RH  087%=      5-min Rain = 0
KBY1 091429Z 26005KT M06/M08 A3038 RMK A01 T10591077  RH  087%=      5-min Rain = 0
KBY1 091430Z 26005KT M06/M08 A3038 RMK A01 T10581077  RH  087%=      5-min Rain = 0
KBY1 091431Z 26004KT M06/M08 A3038 RMK A01 T10571076  RH  087%=      5-min Rain = 0
KBY1 091432Z 27005KT M06/M08 A3038 RMK A01 T10571076  RH  087%=      5-min Rain = 0
KBY1 091433Z 26006KT M06/M08 A3038 RMK A01 T10571076  RH  087%=      5-min Rain = 0
KBY1 091434Z 26006KT M06/M08 A3038 RMK A01 T10561076  RH  086%=      5-min Rain = 0
KBY1 091435Z 27007KT M06/M08 A3038 RMK A01 T10561076  RH  086%=      5-min Rain = 0
KBY1 091436Z 27007KT M06/M08 A3038 RMK A01 T10561076  RH  086%=      5-min Rain = 0
KBY1 091437Z 27007KT M06/M08 A3038 RMK A01 T10561075  RH  086%=      5-min Rain = 0
KBY1 091438Z 27006KT M06/M08 A3038 RMK A01 T10551076  RH  086%=      5-min Rain = 0
KBY1 091439Z 26007KT M06/M08 A3038 RMK A01 T10551075  RH  086%=      5-min Rain = 0
KBY1 091440Z 26008KT M05/M08 A3038 RMK A01 T10541075  RH  086%=      5-min Rain = 0
KBY1 091441Z 27007KT M05/M07 A3038 RMK A01 T10531074  RH  085%=      5-min Rain = 0
KBY1 091442Z 27007KT M05/M07 A3038 RMK A01 T10531074  RH  085%=      5-min Rain = 0
KBY1 091443Z 27007KT M05/M07 A3038 RMK A01 T10531074  RH  085%=      5-min Rain = 0
KBY1 091444Z 26008KT M05/M07 A3038 RMK A01 T10521073  RH  085%=      5-min Rain = 0
KBY1 091445Z 27008KT M05/M07 A3038 RMK A01 T10511072  RH  085%=      5-min Rain = 0
KBY1 091446Z 27008KT M05/M07 A3038 RMK A01 T10511072  RH  085%=      5-min Rain = 0
KBY1 091447Z 27008KT M05/M07 A3038 RMK A01 T10501072  RH  085%=      5-min Rain = 0
KBY1 091448Z 27007KT M05/M07 A3038 RMK A01 T10491071  RH  085%=      5-min Rain = 0
KBY1 091449Z 27009KT M05/M07 A3038 RMK A01 T10491071  RH  084%=      5-min Rain = 0
KBY1 091450Z 27010KT M05/M07 A3038 RMK A01 T10481071  RH  084%=      5-min Rain = 0
KBY1 091451Z 27009KT M05/M07 A3038 RMK A01 T10491072  RH  084%=      5-min Rain = 0
KBY1 091452Z 27007KT M05/M07 A3038 RMK A01 T10491072  RH  084%=      5-min Rain = 0
KBY1 091453Z 27007KT M05/M07 A3038 RMK A01 T10481071  RH  084%=      5-min Rain = 0
KBY1 091454Z 27008KT M05/M07 A3038 RMK A01 T10481070  RH  084%=      5-min Rain = 0
KBY1 091455Z 27009KT M05/M07 A3038 RMK A01 T10471070  RH  084%=      5-min Rain = 0
KBY1 091456Z 27008KT M05/M07 A3039 RMK A01 T10471070  RH  084%=      5-min Rain = 0
KBY1 091457Z 27008KT M05/M07 A3039 RMK A01 T10461069  RH  084%=      5-min Rain = 0
KBY1 091458Z 27006KT M05/M07 A3039 RMK A01 T10451068  RH  084%=      5-min Rain = 0
KBY1 091459Z 27007KT M04/M07 A3039 RMK A01 T10441066  RH  085%=      5-min Rain = 0
KBY1 091500Z 27008KT M04/M07 A3038 RMK A01 T10431066  RH  084%=      5-min Rain = 0
KBY1 091501Z 27007KT M04/M07 A3038 RMK A01 T10421066  RH  083%=      5-min Rain = 0
KBY1 091502Z 27006KT M04/M07 A3038 RMK A01 T10411065  RH  083%=      5-min Rain = 0
KBY1 091503Z 26006KT M04/M07 A3038 RMK A01 T10411065  RH  083%=      5-min Rain = 0
KBY1 091504Z 27007KT M04/M07 A3038 RMK A01 T10401065  RH  083%=      5-min Rain = 0
KBY1 091505Z 27008KT M04/M07 A3038 RMK A01 T10391065  RH  082%=      5-min Rain = 0
KBY1 091506Z 27005KT M04/M07 A3038 RMK A01 T10391065  RH  082%=      5-min Rain = 0
KBY1 091507Z 26005KT M04/M07 A3038 RMK A01 T10381065  RH  082%=      5-min Rain = 0
KBY1 091508Z 27006KT M04/M06 A3038 RMK A01 T10381064  RH  082%=      5-min Rain = 0
KBY1 091509Z 27005KT M04/M06 A3038 RMK A01 T10361062  RH  082%=      5-min Rain = 0
KBY1 091510Z 27006KT M04/M06 A3038 RMK A01 T10361063  RH  082%=      5-min Rain = 0
KBY1 091511Z 28005KT M04/M06 A3038 RMK A01 T10351063  RH  081%=      5-min Rain = 0
KBY1 091512Z 28005KT M04/M06 A3038 RMK A01 T10351062  RH  081%=      5-min Rain = 0
KBY1 091513Z 29005KT M03/M06 A3038 RMK A01 T10331062  RH  081%=      5-min Rain = 0
KBY1 091514Z 29005KT M03/M06 A3038 RMK A01 T10331062  RH  080%=      5-min Rain = 0
KBY1 091515Z 29008KT M03/M06 A3038 RMK A01 T10331062  RH  080%=      5-min Rain = 0
KBY1 091516Z 29006KT M03/M06 A3039 RMK A01 T10331063  RH  079%=      5-min Rain = 0
KBY1 091517Z 29006KT M03/M06 A3039 RMK A01 T10331063  RH  080%=      5-min Rain = 0
KBY1 091518Z 29004KT M03/M06 A3039 RMK A01 T10321062  RH  079%=      5-min Rain = 0
KBY1 091519Z 29006KT M03/M06 A3039 RMK A01 T10311062  RH  079%=      5-min Rain = 0
KBY1 091520Z 28007KT M03/M06 A3039 RMK A01 T10311062  RH  079%=      5-min Rain = 0
KBY1 091521Z 29008KT M03/M06 A3039 RMK A01 T10311063  RH  078%=      5-min Rain = 0
KBY1 091522Z 28006KT M03/M06 A3039 RMK A01 T10311064  RH  078%=      5-min Rain = 0
KBY1 091523Z 29006KT M03/M06 A3039 RMK A01 T10311063  RH  078%=      5-min Rain = 0
KBY1 091524Z 28007KT M03/M06 A3039 RMK A01 T10301063  RH  078%=      5-min Rain = 0
KBY1 091525Z 27006KT M03/M06 A3039 RMK A01 T10301063  RH  078%=      5-min Rain = 0
KBY1 091526Z 27006KT M03/M06 A3039 RMK A01 T10291062  RH  078%=      5-min Rain = 0
KBY1 091527Z 26006KT M03/M06 A3039 RMK A01 T10271061  RH  078%=      5-min Rain = 0
KBY1 091528Z 26007KT M03/M06 A3039 RMK A01 T10271061  RH  077%=      5-min Rain = 0
KBY1 091529Z 26007KT M03/M06 A3039 RMK A01 T10271063  RH  076%=      5-min Rain = 0
KBY1 091530Z 26009KT M03/M06 A3039 RMK A01 T10261062  RH  076%=      5-min Rain = 0
KBY1 091531Z 26007KT M03/M06 A3039 RMK A01 T10261062  RH  076%=      5-min Rain = 0
KBY1 091532Z 27007KT M03/M06 A304 RMK A01 T10261062  RH  076%=      5-min Rain = 0
KBY1 091533Z 27006KT M02/M06 A304 RMK A01 T10241060  RH  076%=      5-min Rain = 0
KBY1 091534Z 27008KT M02/M06 A304 RMK A01 T10231060  RH  076%=      5-min Rain = 0
KBY1 091535Z 27008KT M02/M06 A304 RMK A01 T10221061  RH  075%=      5-min Rain = 0
KBY1 091536Z 27008KT M02/M06 A304 RMK A01 T10231062  RH  075%=      5-min Rain = 0
KBY1 091537Z 27009KT M02/M06 A304 RMK A01 T10241062  RH  075%=      5-min Rain = 0
KBY1 091538Z 27009KT M02/M06 A3039 RMK A01 T10241062  RH  075%=      5-min Rain = 0
KBY1 091539Z 28008KT M02/M06 A3039 RMK A01 T10231062  RH  074%=      5-min Rain = 0
KBY1 091540Z 28007KT M02/M06 A3039 RMK A01 T10231063  RH  074%=      5-min Rain = 0
KBY1 091541Z 28007KT M02/M06 A3039 RMK A01 T10221060  RH  075%=      5-min Rain = 0
KBY1 091542Z 28006KT M02/M06 A3039 RMK A01 T10211060  RH  074%=      5-min Rain = 0
KBY1 091543Z 28006KT M02/M06 A3039 RMK A01 T10191059  RH  074%=      5-min Rain = 0
KBY1 091544Z 27008KT M02/M06 A3039 RMK A01 T10181059  RH  073%=      5-min Rain = 0
KBY1 091545Z 27008KT M02/M06 A3039 RMK A01 T10171060  RH  073%=      5-min Rain = 0
KBY1 091546Z 27008KT M02/M06 A3039 RMK A01 T10181061  RH  072%=      5-min Rain = 0
KBY1 091547Z 27009KT M02/M06 A3039 RMK A01 T10181061  RH  072%=      5-min Rain = 0
KBY1 091548Z 27008KT M02/M06 A304 RMK A01 T10171061  RH  072%=      5-min Rain = 0
KBY1 091549Z 27008KT M02/M06 A304 RMK A01 T10171061  RH  072%=      5-min Rain = 0
KBY1 091550Z 27009KT M02/M06 A304 RMK A01 T10161060  RH  072%=      5-min Rain = 0
KBY1 091551Z 27008KT M02/M06 A304 RMK A01 T10151059  RH  072%=      5-min Rain = 0
KBY1 091552Z 26008KT M01/M06 A304 RMK A01 T10131058  RH  072%=      5-min Rain = 0
KBY1 091553Z 26009KT M01/M06 A3039 RMK A01 T10121058  RH  071%=      5-min Rain = 0
KBY1 091554Z 26006KT M01/M06 A3039 RMK A01 T10121059  RH  071%=      5-min Rain = 0
KBY1 091555Z 27005KT M01/M06 A304 RMK A01 T10111056  RH  071%=      5-min Rain = 0
KBY1 091556Z 26006KT M01/M06 A304 RMK A01 T10091055  RH  071%=      5-min Rain = 0
KBY1 091557Z 27005KT M01/M06 A304 RMK A01 T10081055  RH  070%=      5-min Rain = 0
KBY1 091558Z 26005KT M01/M06 A304 RMK A01 T10061055  RH  070%=      5-min Rain = 0
KBY1 091559Z 27006KT M01/M06 A304 RMK A01 T10051056  RH  069%=      5-min Rain = 0
KBY1 091600Z 26006KT M01/M06 A304 RMK A01 T10061059  RH  067%=      5-min Rain = 0
KBY1 091601Z 27007KT M01/M06 A304 RMK A01 T10081061  RH  068%=      5-min Rain = 0
KBY1 091602Z 27008KT M01/M06 A304 RMK A01 T10091061  RH  068%=      5-min Rain = 0
KBY1 091603Z 27007KT M01/M06 A304 RMK A01 T10101062  RH  068%=      5-min Rain = 0
KBY1 091604Z 27007KT M01/M06 A304 RMK A01 T10101061  RH  069%=      5-min Rain = 0
KBY1 091605Z 27007KT M01/M06 A304 RMK A01 T10101060  RH  069%=      5-min Rain = 0
KBY1 091606Z 30008KT M01/M06 A304 RMK A01 T10091060  RH  069%=      5-min Rain = 0
KBY1 091607Z 29007KT M01/M06 A304 RMK A01 T10081060  RH  068%=      5-min Rain = 0
KBY1 091608Z 29007KT M01/M06 A304 RMK A01 T10071060  RH  068%=      5-min Rain = 0
KBY1 091609Z 29007KT M01/M06 A304 RMK A01 T10071060  RH  068%=      5-min Rain = 0
KBY1 091610Z 28006KT M01/M06 A304 RMK A01 T10081060  RH  068%=      5-min Rain = 0
KBY1 091611Z 27005KT M01/M06 A304 RMK A01 T10071059  RH  068%=      5-min Rain = 0
KBY1 091612Z 28004KT M01/M06 A304 RMK A01 T10051057  RH  068%=      5-min Rain = 0
KBY1 091613Z 29004KT M00/M06 A304 RMK A01 T10041058  RH  067%=      5-min Rain = 0
KBY1 091614Z 27004KT M00/M06 A304 RMK A01 T10041058  RH  067%=      5-min Rain = 0
KBY1 091615Z 28005KT M00/M06 A304 RMK A01 T10031057  RH  067%=      5-min Rain = 0
KBY1 091616Z 26004KT M00/M06 A304 RMK A01 T10031058  RH  067%=      5-min Rain = 0
KBY1 091617Z 26006KT M00/M06 A304 RMK A01 T10031056  RH  067%=      5-min Rain = 0
KBY1 091618Z 29005KT M00/M06 A304 RMK A01 T10021056  RH  067%=      5-min Rain = 0
KBY1 091619Z 27003KT M00/M06 A304 RMK A01 T10011055  RH  067%=      5-min Rain = 0
KBY1 091620Z 28004KT 00/M06 A304 RMK A01 T00011055  RH  066%=      5-min Rain = 0
KBY1 091621Z 26004KT 00/M06 A304 RMK A01 T00011056  RH  065%=      5-min Rain = 0
KBY1 091622Z 27004KT 00/06 A304 RMK A01 T00000-57  RH  065%=      5-min Rain = 0
KBY1 091623Z 26003KT 00/06 A304 RMK A01 T00-00-56  RH  066%=      5-min Rain = 0
KBY1 091624Z 26006KT 00/06 A304 RMK A01 T00000-55  RH  066%=      5-min Rain = 0
KBY1 091625Z 28004KT 00/M06 A304 RMK A01 T00011055  RH  066%=      5-min Rain = 0
KBY1 091626Z 25004KT 00/M06 A304 RMK A01 T00021055  RH  066%=      5-min Rain = 0
KBY1 091627Z 27006KT 00/M05 A304 RMK A01 T00031053  RH  066%=      5-min Rain = 0
KBY1 091628Z 26005KT 01/M05 A304 RMK A01 T00061051  RH  066%=      5-min Rain = 0
KBY1 091629Z 25004KT 01/M05 A304 RMK A01 T00071053  RH  064%=      5-min Rain = 0
KBY1 091630Z 26005KT 01/M05 A304 RMK A01 T00071053  RH  064%=      5-min Rain = 0
KBY1 091631Z 28004KT 01/M05 A304 RMK A01 T00071053  RH  064%=      5-min Rain = 0
KBY1 091632Z 28003KT 01/M05 A304 RMK A01 T00071053  RH  064%=      5-min Rain = 0
KBY1 091633Z 27005KT 01/M05 A304 RMK A01 T00101050  RH  064%=      5-min Rain = 0
KBY1 091634Z 27005KT 01/M05 A304 RMK A01 T00121051  RH  063%=      5-min Rain = 0
KBY1 091635Z 27005KT 01/M05 A304 RMK A01 T00121052  RH  062%=      5-min Rain = 0
KBY1 091636Z 26004KT 01/M05 A304 RMK A01 T00101054  RH  062%=      5-min Rain = 0
KBY1 091637Z 25004KT 01/M05 A304 RMK A01 T00091052  RH  063%=      5-min Rain = 0
KBY1 091638Z 26005KT 01/M05 A304 RMK A01 T00121049  RH  064%=      5-min Rain = 0
KBY1 091639Z 26004KT 01/M05 A304 RMK A01 T00141050  RH  063%=      5-min Rain = 0
KBY1 091640Z 26005KT 02/M05 A304 RMK A01 T00161048  RH  062%=      5-min Rain = 0
KBY1 091641Z 26005KT 02/M05 A304 RMK A01 T00171050  RH  061%=      5-min Rain = 0
KBY1 091642Z 27004KT 02/M05 A304 RMK A01 T00181049  RH  061%=      5-min Rain = 0
KBY1 091643Z 27003KT 02/M05 A304 RMK A01 T00171051  RH  061%=      5-min Rain = 0
KBY1 091644Z 26004KT 02/M05 A304 RMK A01 T00181049  RH  061%=      5-min Rain = 0
KBY1 091645Z 24004KT 02/M05 A304 RMK A01 T00211047  RH  061%=      5-min Rain = 0
KBY1 091646Z 23004KT 02/M05 A304 RMK A01 T00211050  RH  059%=      5-min Rain = 0
KBY1 091647Z 26004KT 02/M05 A304 RMK A01 T00201051  RH  060%=      5-min Rain = 0
KBY1 091648Z 25003KT 02/M05 A304 RMK A01 T00211048  RH  060%=      5-min Rain = 0
KBY1 091649Z 26004KT 02/M05 A304 RMK A01 T00221049  RH  059%=      5-min Rain = 0
KBY1 091650Z 29004KT 02/M05 A304 RMK A01 T00231049  RH  059%=      5-min Rain = 0
KBY1 091651Z 31003KT 02/M05 A304 RMK A01 T00221050  RH  059%=      5-min Rain = 0
KBY1 091652Z 28001KT 02/M05 A304 RMK A01 T00221050  RH  059%=      5-min Rain = 0
KBY1 091653Z 28003KT 02/M05 A304 RMK A01 T00241047  RH  060%=      5-min Rain = 0
KBY1 091654Z 29004KT 03/M05 A304 RMK A01 T00251048  RH  058%=      5-min Rain = 0
KBY1 091655Z 26004KT 02/M05 A304 RMK A01 T00241050  RH  058%=      5-min Rain = 0
KBY1 091656Z 26004KT 02/M05 A304 RMK A01 T00241049  RH  059%=      5-min Rain = 0
KBY1 091657Z 28002KT 02/M05 A304 RMK A01 T00241049  RH  059%=      5-min Rain = 0
KBY1 091658Z 26001KT 03/M05 A304 RMK A01 T00251048  RH  059%=      5-min Rain = 0
KBY1 091659Z 26003KT 03/M05 A3039 RMK A01 T00251048  RH  058%=      5-min Rain = 0
KBY1 091700Z 26002KT 03/M05 A3039 RMK A01 T00261048  RH  058%=      5-min Rain = 0
KBY1 091701Z 25004KT 03/M05 A3039 RMK A01 T00271047  RH  058%=      5-min Rain = 0
KBY1 091702Z 24004KT 03/M05 A3039 RMK A01 T00281047  RH  058%=      5-min Rain = 0
KBY1 091703Z 24004KT 03/M05 A3039 RMK A01 T00291046  RH  058%=      5-min Rain = 0
KBY1 091704Z 25003KT 03/M05 A3039 RMK A01 T00311046  RH  057%=      5-min Rain = 0
KBY1 091705Z 23004KT 03/M05 A3039 RMK A01 T00321046  RH  057%=      5-min Rain = 0
KBY1 091706Z 25003KT 03/M05 A3039 RMK A01 T00331046  RH  056%=      5-min Rain = 0
KBY1 091707Z 23004KT 03/M05 A3039 RMK A01 T00331045  RH  057%=      5-min Rain = 0
KBY1 091708Z 24005KT 04/M04 A3039 RMK A01 T00351044  RH  056%=      5-min Rain = 0
KBY1 091709Z 24004KT 04/M05 A3039 RMK A01 T00351045  RH  056%=      5-min Rain = 0
KBY1 091710Z 23005KT 04/M05 A3039 RMK A01 T00351045  RH  055%=      5-min Rain = 0
KBY1 091711Z 24004KT 04/M05 A3039 RMK A01 T00351046  RH  055%=      5-min Rain = 0
KBY1 091712Z 23004KT 03/M05 A3039 RMK A01 T00341046  RH  056%=      5-min Rain = 0
KBY1 091713Z 23004KT 03/M05 A3039 RMK A01 T00341046  RH  056%=      5-min Rain = 0
KBY1 091714Z 22004KT 03/M05 A3039 RMK A01 T00341045  RH  056%=      5-min Rain = 0
KBY1 091715Z 24005KT 04/M04 A3039 RMK A01 T00371044  RH  056%=      5-min Rain = 0
KBY1 091716Z 25004KT 04/M05 A3039 RMK A01 T00371045  RH  055%=      5-min Rain = 0
KBY1 091717Z 21003KT 04/M04 A3039 RMK A01 T00371044  RH  055%=      5-min Rain = 0
KBY1 091718Z 26003KT 04/M04 A3039 RMK A01 T00381043  RH  055%=      5-min Rain = 0
KBY1 091719Z 24004KT 04/M04 A3039 RMK A01 T00401043  RH  055%=      5-min Rain = 0
KBY1 091720Z 22004KT 04/M04 A3039 RMK A01 T00411042  RH  055%=      5-min Rain = 0
KBY1 091721Z 22004KT 04/M04 A3039 RMK A01 T00411043  RH  054%=      5-min Rain = 0
KBY1 091722Z 26004KT 04/M04 A3039 RMK A01 T00411043  RH  054%=      5-min Rain = 0
KBY1 091723Z 26005KT 04/M04 A3039 RMK A01 T00421042  RH  054%=      5-min Rain = 0
KBY1 091724Z 26005KT 04/M04 A3039 RMK A01 T00431043  RH  054%=      5-min Rain = 0
KBY1 091725Z 26005KT 04/M04 A3039 RMK A01 T00431043  RH  054%=      5-min Rain = 0
KBY1 091726Z 26003KT 04/M04 A3039 RMK A01 T00431043  RH  054%=      5-min Rain = 0
KBY1 091727Z 26002KT 04/M04 A3039 RMK A01 T00431043  RH  053%=      5-min Rain = 0
KBY1 091728Z 25005KT 04/M04 A3039 RMK A01 T00441043  RH  053%=      5-min Rain = 0
KBY1 091729Z 25003KT 04/M04 A3039 RMK A01 T00441043  RH  053%=      5-min Rain = 0
KBY1 091730Z 25005KT 04/M04 A3039 RMK A01 T00441042  RH  054%=      5-min Rain = 0
KBY1 091731Z 24005KT 05/M04 A3039 RMK A01 T00451041  RH  053%=      5-min Rain = 0
KBY1 091732Z 26005KT 05/M04 A3039 RMK A01 T00481039  RH  053%=      5-min Rain = 0
KBY1 091733Z 24005KT 05/M04 A3039 RMK A01 T00511039  RH  052%=      5-min Rain = 0
KBY1 091734Z 26005KT 05/M04 A3039 RMK A01 T00521039  RH  052%=      5-min Rain = 0
KBY1 091735Z 24004KT 05/M04 A3039 RMK A01 T00511042  RH  051%=      5-min Rain = 0
KBY1 091736Z 27006KT 05/M04 A3039 RMK A01 T00521038  RH  052%=      5-min Rain = 0
KBY1 091737Z 25005KT 05/M04 A3039 RMK A01 T00531040  RH  051%=      5-min Rain = 0
KBY1 091738Z 25005KT 05/M04 A3039 RMK A01 T00511042  RH  051%=      5-min Rain = 0
KBY1 091739Z 25006KT 05/M04 A3039 RMK A01 T00521041  RH  051%=      5-min Rain = 0
KBY1 091740Z 25006KT 05/M04 A3039 RMK A01 T00521041  RH  051%=      5-min Rain = 0
KBY1 091741Z 25005KT 05/M04 A3039 RMK A01 T00521041  RH  051%=      5-min Rain = 0
KBY1 091742Z 23006KT 05/M04 A3039 RMK A01 T00531040  RH  051%=      5-min Rain = 0
KBY1 091743Z 25004KT 06/M04 A3039 RMK A01 T00561036  RH  052%=      5-min Rain = 0
KBY1 091744Z 23005KT 06/M04 A3039 RMK A01 T00601036  RH  050%=      5-min Rain = 0
KBY1 091745Z 23005KT 06/M04 A3038 RMK A01 T00591040  RH  049%=      5-min Rain = 0
KBY1 091746Z 26004KT 06/M04 A3038 RMK A01 T00591038  RH  050%=      5-min Rain = 0
KBY1 091747Z 28002KT 06/M04 A3038 RMK A01 T00611038  RH  049%=      5-min Rain = 0
KBY1 091748Z 27002KT 06/M04 A3038 RMK A01 T00611039  RH  048%=      5-min Rain = 0
KBY1 091749Z 27004KT 06/M04 A3038 RMK A01 T00621039  RH  048%=      5-min Rain = 0
KBY1 091750Z 27004KT 06/M04 A3038 RMK A01 T00621039  RH  048%=      5-min Rain = 0
KBY1 091751Z 27005KT 06/M04 A3038 RMK A01 T00621039  RH  048%=      5-min Rain = 0
KBY1 091752Z 26005KT 06/M04 A3038 RMK A01 T00611041  RH  048%=      5-min Rain = 0
KBY1 091753Z 26004KT 06/M04 A3038 RMK A01 T00591041  RH  049%=      5-min Rain = 0
KBY1 091754Z 25004KT 06/M04 A3038 RMK A01 T00601039  RH  049%=      5-min Rain = 0
KBY1 091755Z 26003KT 06/M04 A3038 RMK A01 T00621039  RH  048%=      5-min Rain = 0
KBY1 091756Z 26004KT 06/M04 A3038 RMK A01 T00631038  RH  048%=      5-min Rain = 0
KBY1 091757Z 26003KT 06/M04 A3038 RMK A01 T00641039  RH  048%=      5-min Rain = 0
KBY1 091758Z 24005KT 06/M04 A3038 RMK A01 T00641039  RH  048%=      5-min Rain = 0
KBY1 091759Z 25006KT 07/M04 A3038 RMK A01 T00651039  RH  048%=      5-min Rain = 0
KBY1 091800Z 25006KT 06/M04 A3038 RMK A01 T00641040  RH  048%=      5-min Rain = 0
KBY1 091801Z 26005KT 06/M04 A3038 RMK A01 T00631040  RH  048%=      5-min Rain = 0
KBY1 091802Z 25004KT 06/M04 A3038 RMK A01 T00641038  RH  048%=      5-min Rain = 0
KBY1 091803Z 22005KT 07/M04 A3038 RMK A01 T00661038  RH  047%=      5-min Rain = 0
KBY1 091804Z 21003KT 07/M04 A3038 RMK A01 T00661039  RH  047%=      5-min Rain = 0
KBY1 091805Z 20003KT 07/M04 A3037 RMK A01 T00671037  RH  047%=      5-min Rain = 0
KBY1 091806Z 23004KT 07/M04 A3037 RMK A01 T00691037  RH  047%=      5-min Rain = 0
KBY1 091807Z 26003KT 07/M04 A3037 RMK A01 T00701037  RH  046%=      5-min Rain = 0
KBY1 091808Z 27002KT 07/M04 A3037 RMK A01 T00711038  RH  046%=      5-min Rain = 0
KBY1 091809Z 27001KT 07/M04 A3037 RMK A01 T00701040  RH  045%=      5-min Rain = 0
KBY1 091810Z 28003KT 07/M04 A3037 RMK A01 T00701040  RH  046%=      5-min Rain = 0
KBY1 091811Z 27003KT 07/M04 A3037 RMK A01 T00721038  RH  046%=      5-min Rain = 0
KBY1 091812Z 27003KT 07/M04 A3037 RMK A01 T00731038  RH  045%=      5-min Rain = 0
KBY1 091813Z 32002KT 07/M04 A3037 RMK A01 T00731039  RH  045%=      5-min Rain = 0
KBY1 091814Z 36002KT 07/M04 A3037 RMK A01 T00731039  RH  045%=      5-min Rain = 0
KBY1 091815Z 02002KT 07/M04 A3037 RMK A01 T00731040  RH  045%=      5-min Rain = 0
KBY1 091816Z 09001KT 07/M04 A3037 RMK A01 T00731040  RH  044%=      5-min Rain = 0
KBY1 091817Z 33002KT 07/M04 A3037 RMK A01 T00731040  RH  045%=      5-min Rain = 0
KBY1 091818Z 28002KT 08/M04 A3037 RMK A01 T00761037  RH  045%=      5-min Rain = 0
KBY1 091819Z 24002KT 08/M04 A3037 RMK A01 T00761039  RH  044%=      5-min Rain = 0
KBY1 091820Z 22002KT 08/M04 A3037 RMK A01 T00761039  RH  044%=      5-min Rain = 0
KBY1 091821Z 26003KT 08/M04 A3037 RMK A01 T00771038  RH  044%=      5-min Rain = 0
KBY1 091822Z 28003KT 08/M04 A3037 RMK A01 T00811035  RH  044%=      5-min Rain = 0
KBY1 091823Z 31003KT 08/M04 A3037 RMK A01 T00831038  RH  042%=      5-min Rain = 0
KBY1 091824Z 31004KT 08/M04 A3037 RMK A01 T00831039  RH  042%=      5-min Rain = 0
KBY1 091825Z 28003KT 08/M04 A3037 RMK A01 T00821040  RH  042%=      5-min Rain = 0
KBY1 091826Z 34000KT 08/M04 A3036 RMK A01 T00811042  RH  041%=      5-min Rain = 0
KBY1 091827Z 32002KT 08/M04 A3036 RMK A01 T00801042  RH  042%=      5-min Rain = 0
KBY1 091828Z 28001KT 08/M04 A3036 RMK A01 T00801042  RH  042%=      5-min Rain = 0
KBY1 091829Z 29000KT 08/M04 A3036 RMK A01 T00791042  RH  042%=      5-min Rain = 0
KBY1 091830Z 19001KT 08/M04 A3036 RMK A01 T00811042  RH  042%=      5-min Rain = 0
KBY1 091831Z 20002KT 08/M04 A3036 RMK A01 T00831040  RH  042%=      5-min Rain = 0
KBY1 091832Z 23002KT 09/M04 A3036 RMK A01 T00851041  RH  041%=      5-min Rain = 0
KBY1 091833Z 23002KT 09/M04 A3036 RMK A01 T00861039  RH  041%=      5-min Rain = 0
KBY1 091834Z 26003KT 09/M04 A3036 RMK A01 T00881037  RH  041%=      5-min Rain = 0
KBY1 091835Z 29001KT 09/M04 A3036 RMK A01 T00881040  RH  040%=      5-min Rain = 0
KBY1 091836Z 25003KT 09/M04 A3036 RMK A01 T00871041  RH  040%=      5-min Rain = 0
KBY1 091837Z 25003KT 09/M04 A3036 RMK A01 T00881040  RH  040%=      5-min Rain = 0
KBY1 091838Z 26003KT 09/M04 A3036 RMK A01 T00891038  RH  041%=      5-min Rain = 0
KBY1 091839Z 25004KT 09/M04 A3035 RMK A01 T00891038  RH  040%=      5-min Rain = 0
KBY1 091840Z 24003KT 09/M04 A3035 RMK A01 T00891041  RH  040%=      5-min Rain = 0
KBY1 091841Z 22002KT 09/M04 A3035 RMK A01 T00871040  RH  040%=      5-min Rain = 0
KBY1 091842Z 20001KT 09/M04 A3035 RMK A01 T00881040  RH  040%=      5-min Rain = 0
KBY1 091843Z 19001KT 09/M04 A3035 RMK A01 T00901040  RH  040%=      5-min Rain = 0
KBY1 091844Z 19003KT 09/M04 A3035 RMK A01 T00901041  RH  039%=      5-min Rain = 0
KBY1 091845Z 22002KT 09/M04 A3035 RMK A01 T00911041  RH  039%=      5-min Rain = 0
KBY1 091846Z 23001KT 09/M04 A3035 RMK A01 T00901041  RH  039%=      5-min Rain = 0
KBY1 091847Z 19003KT 09/M04 A3035 RMK A01 T00911041  RH  039%=      5-min Rain = 0
KBY1 091848Z 17003KT 09/M04 A3035 RMK A01 T00941039  RH  039%=      5-min Rain = 0
KBY1 091849Z 20003KT 10/M04 A3035 RMK A01 T00961040  RH  038%=      5-min Rain = 0
KBY1 091850Z 19003KT 10/M04 A3035 RMK A01 T00961040  RH  038%=      5-min Rain = 0
KBY1 091851Z 22002KT 10/M04 A3035 RMK A01 T00961042  RH  038%=      5-min Rain = 0
KBY1 091852Z 21002KT 09/M04 A3035 RMK A01 T00931042  RH  038%=      5-min Rain = 0
KBY1 091853Z 22002KT 09/M04 A3035 RMK A01 T00921043  RH  038%=      5-min Rain = 0
KBY1 091854Z 19003KT 09/M04 A3034 RMK A01 T00941043  RH  038%=      5-min Rain = 0
KBY1 091855Z 20004KT 10/M04 A3034 RMK A01 T00961042  RH  037%=      5-min Rain = 0
KBY1 091856Z 21003KT 10/M04 A3034 RMK A01 T00971044  RH  037%=      5-min Rain = 0
KBY1 091857Z 19003KT 10/M05 A3034 RMK A01 T00981045  RH  036%=      5-min Rain = 0
KBY1 091858Z 19003KT 10/M05 A3034 RMK A01 T00981046  RH  036%=      5-min Rain = 0
KBY1 091859Z 17002KT 10/M05 A3034 RMK A01 T00981046  RH  036%=      5-min Rain = 0
KBY1 091900Z 14002KT 10/M05 A3034 RMK A01 T00981046  RH  036%=      5-min Rain = 0
KBY1 091901Z 12001KT 10/M05 A3034 RMK A01 T00991047  RH  035%=      5-min Rain = 0
KBY1 091902Z 20001KT 10/M05 A3034 RMK A01 T00991047  RH  035%=      5-min Rain = 0
KBY1 091903Z 21000KT 10/M05 A3034 RMK A01 T00991050  RH  035%=      5-min Rain = 0
KBY1 091904Z 16001KT 10/M05 A3034 RMK A01 T01001049  RH  035%=      5-min Rain = 0
KBY1 091905Z 22001KT 10/M05 A3034 RMK A01 T01021053  RH  033%=      5-min Rain = 0
KBY1 091906Z 12001KT 10/M06 A3034 RMK A01 T01021058  RH  032%=      5-min Rain = 0
KBY1 091907Z 12002KT 10/M06 A3034 RMK A01 T01021060  RH  032%=      5-min Rain = 0
KBY1 091908Z 10001KT 10/M06 A3034 RMK A01 T01011056  RH  033%=      5-min Rain = 0
KBY1 091909Z 05002KT 10/M06 A3034 RMK A01 T00991060  RH  032%=      5-min Rain = 0
KBY1 091910Z 04001KT 10/M06 A3034 RMK A01 T00981062  RH  032%=      5-min Rain = 0
KBY1 091911Z 05001KT 10/M06 A3034 RMK A01 T01001059  RH  032%=      5-min Rain = 0
KBY1 091912Z 09001KT 10/M06 A3034 RMK A01 T01021057  RH  032%=      5-min Rain = 0
KBY1 091913Z 05000KT 11/M06 A3034 RMK A01 T01051056  RH  032%=      5-min Rain = 0
KBY1 091914Z 23002KT 11/M06 A3033 RMK A01 T01071057  RH  031%=      5-min Rain = 0
KBY1 091915Z 22001KT 11/M06 A3033 RMK A01 T01081058  RH  031%=      5-min Rain = 0
KBY1 091916Z 20000KT 11/M06 A3033 RMK A01 T01081059  RH  031%=      5-min Rain = 0
KBY1 091917Z 07003KT 11/M06 A3033 RMK A01 T01091063  RH  029%=      5-min Rain = 0
KBY1 091918Z 05004KT 11/M07 A3033 RMK A01 T01091071  RH  028%=      5-min Rain = 0
KBY1 091919Z 07003KT 11/M07 A3033 RMK A01 T01111073  RH  027%=      5-min Rain = 0
KBY1 091920Z 08002KT 11/M08 A3033 RMK A01 T01081080  RH  026%=      5-min Rain = 0
KBY1 091921Z 02005KT 11/M08 A3033 RMK A01 T01061078  RH  027%=      5-min Rain = 0
KBY1 091922Z 04005KT 11/M08 A3033 RMK A01 T01061078  RH  027%=      5-min Rain = 0
KBY1 091923Z 05006KT 11/M08 A3033 RMK A01 T01061081  RH  026%=      5-min Rain = 0
KBY1 091924Z 03005KT 11/M08 A3033 RMK A01 T01051080  RH  026%=      5-min Rain = 0
KBY1 091925Z 03005KT 10/M08 A3033 RMK A01 T01031081  RH  027%=      5-min Rain = 0
KBY1 091926Z 00004KT 10/M08 A3033 RMK A01 T01031077  RH  027%=      5-min Rain = 0
KBY1 091927Z 01003KT 10/M08 A3033 RMK A01 T01021080  RH  027%=      5-min Rain = 0
KBY1 091928Z 00002KT 10/M08 A3033 RMK A01 T01031079  RH  027%=      5-min Rain = 0
KBY1 091929Z 33003KT 10/M08 A3033 RMK A01 T01041082  RH  026%=      5-min Rain = 0
KBY1 091930Z 34004KT 10/M09 A3033 RMK A01 T01041085  RH  026%=      5-min Rain = 0
KBY1 091931Z 02003KT 10/M08 A3033 RMK A01 T01031084  RH  026%=      5-min Rain = 0
KBY1 091932Z 07005KT 10/M08 A3033 RMK A01 T01041081  RH  026%=      5-min Rain = 0
KBY1 091933Z 09003KT 11/M08 A3033 RMK A01 T01051084  RH  026%=      5-min Rain = 0
KBY1 091934Z 08004KT 11/M08 A3033 RMK A01 T01051083  RH  026%=      5-min Rain = 0
KBY1 091935Z 07004KT 11/M08 A3033 RMK A01 T01061080  RH  026%=      5-min Rain = 0
KBY1 091936Z 03002KT 11/M08 A3033 RMK A01 T01081081  RH  026%=      5-min Rain = 0
KBY1 091937Z 04002KT 11/M08 A3033 RMK A01 T01091081  RH  025%=      5-min Rain = 0
KBY1 091938Z 04001KT 11/M08 A3032 RMK A01 T01111082  RH  025%=      5-min Rain = 0
KBY1 091939Z 05007KT 11/M08 A3032 RMK A01 T01131083  RH  024%=      5-min Rain = 0
KBY1 091940Z 05006KT 11/M09 A3032 RMK A01 T01121085  RH  024%=      5-min Rain = 0
KBY1 091941Z 05004KT 11/M09 A3032 RMK A01 T01091087  RH  024%=      5-min Rain = 0
KBY1 091942Z 01003KT 11/M09 A3032 RMK A01 T01071087  RH  025%=      5-min Rain = 0
KBY1 091943Z 35003KT 11/M09 A3032 RMK A01 T01061087  RH  025%=      5-min Rain = 0
KBY1 091944Z 35002KT 11/M08 A3032 RMK A01 T01071082  RH  026%=      5-min Rain = 0
KBY1 091945Z 34000KT 11/M08 A3032 RMK A01 T01081084  RH  025%=      5-min Rain = 0
KBY1 091946Z 07002KT 11/M09 A3032 RMK A01 T01091085  RH  025%=      5-min Rain = 0
KBY1 091947Z 08004KT 11/M08 A3032 RMK A01 T01091084  RH  025%=      5-min Rain = 0
KBY1 091948Z 10002KT 11/M09 A3032 RMK A01 T01081086  RH  025%=      5-min Rain = 0
KBY1 091949Z 09002KT 11/M09 A3032 RMK A01 T01071086  RH  025%=      5-min Rain = 0
KBY1 091950Z 10002KT 11/M09 A3032 RMK A01 T01071085  RH  025%=      5-min Rain = 0
KBY1 091951Z 12004KT 11/M08 A3032 RMK A01 T01101079  RH  026%=      5-min Rain = 0
KBY1 091952Z 03008KT 11/M08 A3032 RMK A01 T01131081  RH  025%=      5-min Rain = 0
KBY1 091953Z 04005KT 11/M08 A3032 RMK A01 T01121084  RH  025%=      5-min Rain = 0
KBY1 091954Z 04005KT 11/M08 A3032 RMK A01 T01111083  RH  025%=      5-min Rain = 0
KBY1 091955Z 06006KT 11/M08 A3032 RMK A01 T01121081  RH  025%=      5-min Rain = 0
KBY1 091956Z 03005KT 11/M08 A3032 RMK A01 T01141079  RH  025%=      5-min Rain = 0
KBY1 091957Z 00006KT 11/M08 A3032 RMK A01 T01141082  RH  025%=      5-min Rain = 0
KBY1 091958Z 00003KT 11/M08 A3032 RMK A01 T01131084  RH  024%=      5-min Rain = 0
KBY1 091959Z 03003KT 11/M09 A3032 RMK A01 T01111086  RH  024%=      5-min Rain = 0
KBY1 092000Z 07005KT 11/M08 A3032 RMK A01 T01101084  RH  025%=      5-min Rain = 0
KBY1 092001Z 06005KT 11/M08 A3032 RMK A01 T01111083  RH  025%=      5-min Rain = 0
KBY1 092002Z 04008KT 11/M09 A3032 RMK A01 T01111086  RH  024%=      5-min Rain = 0
KBY1 092003Z 05006KT 11/M09 A3032 RMK A01 T01101086  RH  024%=      5-min Rain = 0
KBY1 092004Z 05006KT 11/M09 A3032 RMK A01 T01091087  RH  024%=      5-min Rain = 0
KBY1 092005Z 06005KT 11/M09 A3032 RMK A01 T01091087  RH  024%=      5-min Rain = 0
KBY1 092006Z 08002KT 11/M09 A3032 RMK A01 T01091087  RH  024%=      5-min Rain = 0
KBY1 092007Z 09004KT 11/M09 A3032 RMK A01 T01101088  RH  024%=      5-min Rain = 0
KBY1 092008Z 08003KT 11/M09 A3032 RMK A01 T01091088  RH  024%=      5-min Rain = 0
KBY1 092009Z 05007KT 11/M09 A3032 RMK A01 T01091085  RH  025%=      5-min Rain = 0
KBY1 092010Z 07007KT 11/M08 A3032 RMK A01 T01121080  RH  025%=      5-min Rain = 0
KBY1 092011Z 04008KT 12/M08 A3032 RMK A01 T01151079  RH  025%=      5-min Rain = 0
KBY1 092012Z 05008KT 12/M08 A3032 RMK A01 T01171084  RH  024%=      5-min Rain = 0
KBY1 092013Z 07006KT 12/M09 A3032 RMK A01 T01151088  RH  023%=      5-min Rain = 0
KBY1 092014Z 07006KT 11/M09 A3032 RMK A01 T01131086  RH  024%=      5-min Rain = 0
KBY1 092015Z 08005KT 11/M09 A3032 RMK A01 T01131085  RH  024%=      5-min Rain = 0
KBY1 092016Z 07005KT 11/M08 A3032 RMK A01 T01121083  RH  025%=      5-min Rain = 0
KBY1 092017Z 02003KT 11/M08 A3032 RMK A01 T01131082  RH  025%=      5-min Rain = 0
KBY1 092018Z 35005KT 12/M08 A3032 RMK A01 T01151082  RH  024%=      5-min Rain = 0
KBY1 092019Z 02007KT 12/M08 A3032 RMK A01 T01151081  RH  025%=      5-min Rain = 0
KBY1 092020Z 05007KT 12/M08 A3032 RMK A01 T01171076  RH  025%=      5-min Rain = 0
KBY1 092021Z 05005KT 12/M08 A3032 RMK A01 T01171079  RH  025%=      5-min Rain = 0
KBY1 092022Z 04008KT 11/M08 A3032 RMK A01 T01141083  RH  024%=      5-min Rain = 0
KBY1 092023Z 03009KT 11/M09 A3032 RMK A01 T01131086  RH  024%=      5-min Rain = 0
KBY1 092024Z 03008KT 11/M09 A3032 RMK A01 T01131085  RH  024%=      5-min Rain = 0
KBY1 092025Z 03008KT 11/M08 A3032 RMK A01 T01131084  RH  024%=      5-min Rain = 0
KBY1 092026Z 02006KT 11/M09 A3032 RMK A01 T01141086  RH  024%=      5-min Rain = 0
KBY1 092027Z 36004KT 11/M09 A3032 RMK A01 T01121088  RH  024%=      5-min Rain = 0
KBY1 092028Z 35006KT 11/M09 A3032 RMK A01 T01111086  RH  024%=      5-min Rain = 0
KBY1 092029Z 35006KT 11/M09 A3032 RMK A01 T01111087  RH  024%=      5-min Rain = 0
KBY1 092030Z 01005KT 11/M09 A3032 RMK A01 T01111087  RH  024%=      5-min Rain = 0
KBY1 092031Z 05005KT 11/M08 A3032 RMK A01 T01111084  RH  025%=      5-min Rain = 0
KBY1 092032Z 05004KT 11/M08 A3032 RMK A01 T01131082  RH  025%=      5-min Rain = 0
KBY1 092033Z 05004KT 12/M08 A3032 RMK A01 T01151079  RH  025%=      5-min Rain = 0
KBY1 092034Z 09004KT 12/M08 A3031 RMK A01 T01161080  RH  024%=      5-min Rain = 0
KBY1 092035Z 07003KT 12/M08 A3031 RMK A01 T01171082  RH  024%=      5-min Rain = 0
KBY1 092036Z 05005KT 12/M08 A3032 RMK A01 T01161084  RH  024%=      5-min Rain = 0
KBY1 092037Z 06006KT 12/M09 A3032 RMK A01 T01161088  RH  023%=      5-min Rain = 0
KBY1 092038Z 07007KT 12/M09 A3032 RMK A01 T01151089  RH  023%=      5-min Rain = 0
KBY1 092039Z 07008KT 11/M09 A3032 RMK A01 T01141088  RH  023%=      5-min Rain = 0
KBY1 092040Z 07006KT 11/M09 A3032 RMK A01 T01141087  RH  024%=      5-min Rain = 0
KBY1 092041Z 09004KT 11/M09 A3032 RMK A01 T01131089  RH  023%=      5-min Rain = 0
KBY1 092042Z 07005KT 11/M08 A3032 RMK A01 T01131084  RH  024%=      5-min Rain = 0
KBY1 092043Z 06006KT 12/M08 A3032 RMK A01 T01161084  RH  024%=      5-min Rain = 0
KBY1 092044Z 07004KT 12/M09 A3032 RMK A01 T01151087  RH  023%=      5-min Rain = 0
KBY1 092045Z 07002KT 11/M09 A3031 RMK A01 T01141087  RH  024%=      5-min Rain = 0
KBY1 092046Z 08006KT 11/M09 A3032 RMK A01 T01141087  RH  024%=      5-min Rain = 0
KBY1 092047Z 07008KT 11/M09 A3032 RMK A01 T01141086  RH  024%=      5-min Rain = 0
KBY1 092048Z 07008KT 12/M09 A3032 RMK A01 T01161087  RH  023%=      5-min Rain = 0
KBY1 092049Z 07005KT 12/M09 A3031 RMK A01 T01171087  RH  023%=      5-min Rain = 0
KBY1 092050Z 08007KT 12/M09 A3031 RMK A01 T01171086  RH  023%=      5-min Rain = 0
KBY1 092051Z 07006KT 12/M09 A3031 RMK A01 T01181086  RH  023%=      5-min Rain = 0
KBY1 092052Z 06005KT 12/M09 A3031 RMK A01 T01171088  RH  023%=      5-min Rain = 0
KBY1 092053Z 06005KT 12/M09 A3031 RMK A01 T01151089  RH  023%=      5-min Rain = 0
KBY1 092054Z 06004KT 12/M09 A3031 RMK A01 T01151089  RH  023%=      5-min Rain = 0
KBY1 092055Z 08005G10KT 12/M09 A3031 RMK A01 T01151087  RH  023%=      5-min Rain = 0
KBY1 092056Z 06009KT 12/M09 A3031 RMK A01 T01171086  RH  023%=      5-min Rain = 0
KBY1 092057Z 07007KT 12/M09 A3031 RMK A01 T01171087  RH  023%=      5-min Rain = 0
KBY1 092058Z 08006KT 12/M09 A3031 RMK A01 T01171089  RH  023%=      5-min Rain = 0
KBY1 092059Z 07005KT 12/M09 A3031 RMK A01 T01151090  RH  023%=      5-min Rain = 0
KBY1 092100Z 09004KT 11/M09 A3031 RMK A01 T01141091  RH  023%=      5-min Rain = 0
KBY1 092101Z 08003KT 11/M09 A3031 RMK A01 T01141090  RH  023%=      5-min Rain = 0
KBY1 092102Z 08003KT 12/M09 A3031 RMK A01 T01151088  RH  023%=      5-min Rain = 0
KBY1 092103Z 07004KT 12/M09 A3031 RMK A01 T01171087  RH  023%=      5-min Rain = 0
KBY1 092104Z 04003KT 12/M09 A3031 RMK A01 T01171089  RH  023%=      5-min Rain = 0
KBY1 092105Z 03003KT 12/M09 A3031 RMK A01 T01161089  RH  023%=      5-min Rain = 0
KBY1 092106Z 05006G11KT 12/M09 A3031 RMK A01 T01161089  RH  023%=      5-min Rain = 0
KBY1 092107Z 04007KT 12/M09 A3031 RMK A01 T01161086  RH  023%=      5-min Rain = 0
KBY1 092108Z 04007KT 12/M09 A3031 RMK A01 T01181087  RH  023%=      5-min Rain = 0
KBY1 092109Z 03006KT 12/M09 A3031 RMK A01 T01171090  RH  023%=      5-min Rain = 0
KBY1 092110Z 02003KT 12/M09 A3031 RMK A01 T01151090  RH  023%=      5-min Rain = 0
KBY1 092111Z 04004KT 12/M09 A3031 RMK A01 T01151087  RH  023%=      5-min Rain = 0
KBY1 092112Z 06002KT 12/M09 A3031 RMK A01 T01171089  RH  023%=      5-min Rain = 0
KBY1 092113Z 07003KT 12/M09 A3031 RMK A01 T01171090  RH  023%=      5-min Rain = 0
KBY1 092114Z 02003KT 12/M09 A3031 RMK A01 T01171089  RH  023%=      5-min Rain = 0
KBY1 092115Z 01003KT 12/M09 A3031 RMK A01 T01171088  RH  023%=      5-min Rain = 0
KBY1 092116Z 32003KT 12/M09 A3031 RMK A01 T01171088  RH  023%=      5-min Rain = 0
KBY1 092117Z 32002KT 12/M09 A3031 RMK A01 T01181089  RH  023%=      5-min Rain = 0
KBY1 092118Z 01002KT 12/M09 A3031 RMK A01 T01181088  RH  023%=      5-min Rain = 0
KBY1 092119Z 34003KT 12/M09 A3031 RMK A01 T01181088  RH  023%=      5-min Rain = 0
KBY1 092120Z 34002KT 12/M09 A3031 RMK A01 T01191088  RH  023%=      5-min Rain = 0
KBY1 092121Z 00002KT 12/M09 A3031 RMK A01 T01191089  RH  022%=      5-min Rain = 0
KBY1 092122Z 03003KT 12/M09 A3031 RMK A01 T01191090  RH  022%=      5-min Rain = 0
KBY1 092123Z 07006KT 12/M09 A3031 RMK A01 T01181087  RH  023%=      5-min Rain = 0
KBY1 092124Z 08006KT 12/M08 A3031 RMK A01 T01191082  RH  024%=      5-min Rain = 0
KBY1 092125Z 06006KT 12/M08 A3031 RMK A01 T01191083  RH  023%=      5-min Rain = 0
KBY1 092126Z 06007KT 12/M08 A3031 RMK A01 T01171084  RH  024%=      5-min Rain = 0
KBY1 092127Z 08006KT 12/M08 A3031 RMK A01 T01161084  RH  024%=      5-min Rain = 0
KBY1 092128Z 08006KT 11/M09 A3031 RMK A01 T01141086  RH  024%=      5-min Rain = 0
KBY1 092129Z 09005KT 11/M09 A3031 RMK A01 T01121087  RH  024%=      5-min Rain = 0
KBY1 092130Z 09005KT 11/M08 A3031 RMK A01 T01121084  RH  025%=      5-min Rain = 0
KBY1 092131Z 09005KT 11/M08 A3031 RMK A01 T01111084  RH  024%=      5-min Rain = 0
KBY1 092132Z 09004KT 11/M09 A3031 RMK A01 T01111085  RH  024%=      5-min Rain = 0
KBY1 092133Z 09003KT 11/M09 A3031 RMK A01 T01111085  RH  025%=      5-min Rain = 0
KBY1 092134Z 08004KT 11/M09 A3031 RMK A01 T01111085  RH  024%=      5-min Rain = 0
KBY1 092135Z 02006KT 11/M08 A3031 RMK A01 T01121084  RH  024%=      5-min Rain = 0
KBY1 092136Z 02006KT 11/M09 A3031 RMK A01 T01141086  RH  024%=      5-min Rain = 0
KBY1 092137Z 00006KT 11/M09 A3031 RMK A01 T01131086  RH  024%=      5-min Rain = 0
KBY1 092138Z 01006KT 11/M09 A3031 RMK A01 T01141086  RH  024%=      5-min Rain = 0
KBY1 092139Z 03006KT 11/M09 A3031 RMK A01 T01141086  RH  024%=      5-min Rain = 0
KBY1 092140Z 03005KT 11/M09 A3031 RMK A01 T01141086  RH  024%=      5-min Rain = 0
KBY1 092141Z 02004KT 11/M08 A3031 RMK A01 T01141083  RH  024%=      5-min Rain = 0
KBY1 092142Z 02004KT 12/M08 A3031 RMK A01 T01161084  RH  024%=      5-min Rain = 0
KBY1 092143Z 03003KT 12/M09 A3031 RMK A01 T01161087  RH  023%=      5-min Rain = 0
KBY1 092144Z 03004KT 12/M09 A3031 RMK A01 T01151085  RH  024%=      5-min Rain = 0
KBY1 092145Z 01004KT 12/M09 A3031 RMK A01 T01161085  RH  024%=      5-min Rain = 0
KBY1 092146Z 03004KT 12/M09 A3031 RMK A01 T01161085  RH  024%=      5-min Rain = 0
KBY1 092147Z 04005KT 12/M08 A3031 RMK A01 T01161083  RH  024%=      5-min Rain = 0
KBY1 092148Z 06005KT 12/M08 A3031 RMK A01 T01171083  RH  024%=      5-min Rain = 0
KBY1 092149Z 06004KT 12/M08 A3031 RMK A01 T01171084  RH  024%=      5-min Rain = 0
KBY1 092150Z 08005KT 12/M09 A3031 RMK A01 T01161086  RH  023%=      5-min Rain = 0
KBY1 092151Z 08005KT 11/M09 A3031 RMK A01 T01141086  RH  024%=      5-min Rain = 0
KBY1 092152Z 07006KT 11/M09 A3031 RMK A01 T01141085  RH  024%=      5-min Rain = 0
KBY1 092153Z 08005KT 11/M08 A3031 RMK A01 T01141084  RH  024%=      5-min Rain = 0
KBY1 092154Z 07004KT 11/M09 A3031 RMK A01 T01131085  RH  024%=      5-min Rain = 0
KBY1 092155Z 08004KT 11/M09 A3031 RMK A01 T01131085  RH  024%=      5-min Rain = 0
KBY1 092156Z 07002KT 11/M09 A3031 RMK A01 T01131085  RH  024%=      5-min Rain = 0
KBY1 092157Z 02003KT 11/M08 A3031 RMK A01 T01141084  RH  024%=      5-min Rain = 0
KBY1 092158Z 01003KT 12/M08 A3031 RMK A01 T01151084  RH  024%=      5-min Rain = 0
KBY1 092159Z 03004KT 12/M08 A3031 RMK A01 T01151084  RH  024%=      5-min Rain = 0
KBY1 092200Z 03005KT 12/M08 A3031 RMK A01 T01151084  RH  024%=      5-min Rain = 0
KBY1 092201Z 09005KT 12/M08 A3031 RMK A01 T01161083  RH  024%=      5-min Rain = 0
KBY1 092202Z 09004KT 12/M08 A3031 RMK A01 T01161083  RH  024%=      5-min Rain = 0
KBY1 092203Z 05005KT 12/M08 A3031 RMK A01 T01161082  RH  024%=      5-min Rain = 0
KBY1 092204Z 05005KT 12/M08 A3031 RMK A01 T01161083  RH  024%=      5-min Rain = 0
KBY1 092205Z 04002KT 12/M09 A3031 RMK A01 T01151087  RH  023%=      5-min Rain = 0
KBY1 092206Z 02002KT 11/M09 A3031 RMK A01 T01131088  RH  024%=      5-min Rain = 0
KBY1 092207Z 06003KT 11/M09 A3031 RMK A01 T01131087  RH  024%=      5-min Rain = 0
KBY1 092208Z 09005KT 11/M09 A3031 RMK A01 T01131085  RH  024%=      5-min Rain = 0
KBY1 092209Z 09004KT 11/M08 A3031 RMK A01 T01131083  RH  024%=      5-min Rain = 0
KBY1 092210Z 08004KT 12/M08 A3031 RMK A01 T01151081  RH  025%=      5-min Rain = 0
KBY1 092211Z 07005KT 12/M08 A3031 RMK A01 T01151082  RH  024%=      5-min Rain = 0
KBY1 092212Z 06004KT 12/M08 A3031 RMK A01 T01151082  RH  024%=      5-min Rain = 0
KBY1 092213Z 06005KT 12/M08 A3031 RMK A01 T01161080  RH  025%=      5-min Rain = 0
KBY1 092214Z 08005KT 12/M08 A3031 RMK A01 T01161081  RH  024%=      5-min Rain = 0
KBY1 092215Z 09005KT 12/M08 A3031 RMK A01 T01171081  RH  024%=      5-min Rain = 0
KBY1 092216Z 08005KT 12/M08 A3031 RMK A01 T01161083  RH  024%=      5-min Rain = 0
KBY1 092217Z 06005KT 12/M08 A3031 RMK A01 T01151081  RH  025%=      5-min Rain = 0
KBY1 092218Z 06005KT 12/M08 A3031 RMK A01 T01151082  RH  024%=      5-min Rain = 0
KBY1 092219Z 05005KT 12/M08 A3031 RMK A01 T01151083  RH  024%=      5-min Rain = 0
KBY1 092220Z 04005KT 12/M08 A3031 RMK A01 T01151082  RH  024%=      5-min Rain = 0
KBY1 092221Z 04004KT 12/M08 A3031 RMK A01 T01151083  RH  024%=      5-min Rain = 0
KBY1 092222Z 05003KT 11/M08 A3031 RMK A01 T01141084  RH  024%=      5-min Rain = 0
KBY1 092223Z 05002KT 11/M08 A3031 RMK A01 T01141084  RH  024%=      5-min Rain = 0
KBY1 092224Z 08004KT 11/M08 A3031 RMK A01 T01141082  RH  024%=      5-min Rain = 0
KBY1 092225Z 09005KT 11/M08 A3031 RMK A01 T01141082  RH  024%=      5-min Rain = 0
KBY1 092226Z 09005KT 11/M08 A3031 RMK A01 T01141083  RH  024%=      5-min Rain = 0
KBY1 092227Z 08003KT 11/M08 A3031 RMK A01 T01131083  RH  024%=      5-min Rain = 0
KBY1 092228Z 07003KT 11/M08 A3031 RMK A01 T01131083  RH  024%=      5-min Rain = 0
KBY1 092229Z 07004KT 11/M08 A3031 RMK A01 T01131081  RH  025%=      5-min Rain = 0
KBY1 092230Z 08004KT 11/M08 A3031 RMK A01 T01141081  RH  025%=      5-min Rain = 0
KBY1 092231Z 07006KT 11/M08 A3031 RMK A01 T01141079  RH  025%=      5-min Rain = 0
KBY1 092232Z 07006KT 11/M08 A3031 RMK A01 T01141081  RH  025%=      5-min Rain = 0
KBY1 092233Z 08005KT 11/M08 A3031 RMK A01 T01131082  RH  025%=      5-min Rain = 0
KBY1 092234Z 09006KT 11/M08 A3032 RMK A01 T01131081  RH  025%=      5-min Rain = 0
KBY1 092235Z 09006KT 11/M08 A3032 RMK A01 T01121081  RH  025%=      5-min Rain = 0
KBY1 092236Z 08006KT 11/M08 A3032 RMK A01 T01121081  RH  025%=      5-min Rain = 0
KBY1 092237Z 07006KT 11/M08 A3032 RMK A01 T01121079  RH  025%=      5-min Rain = 0
KBY1 092238Z 04007KT 11/M08 A3032 RMK A01 T01121077  RH  026%=      5-min Rain = 0
KBY1 092239Z 04005KT 11/M08 A3032 RMK A01 T01121078  RH  026%=      5-min Rain = 0
KBY1 092240Z 02006KT 11/M08 A3032 RMK A01 T01121078  RH  026%=      5-min Rain = 0
KBY1 092241Z 04007KT 11/M08 A3032 RMK A01 T01121077  RH  026%=      5-min Rain = 0
KBY1 092242Z 04007KT 11/M08 A3032 RMK A01 T01111078  RH  026%=      5-min Rain = 0
KBY1 092243Z 05006KT 11/M08 A3032 RMK A01 T01111078  RH  026%=      5-min Rain = 0
KBY1 092244Z 05005KT 11/M08 A3032 RMK A01 T01111078  RH  026%=      5-min Rain = 0
KBY1 092245Z 05005KT 11/M08 A3032 RMK A01 T01101077  RH  026%=      5-min Rain = 0
KBY1 092246Z 05007KT 11/M08 A3032 RMK A01 T01101077  RH  026%=      5-min Rain = 0
KBY1 092247Z 05008KT 11/M08 A3032 RMK A01 T01101076  RH  026%=      5-min Rain = 0
KBY1 092248Z 05007KT 11/M08 A3032 RMK A01 T01091076  RH  027%=      5-min Rain = 0
KBY1 092249Z 06008KT 11/M08 A3032 RMK A01 T01091076  RH  027%=      5-min Rain = 0
KBY1 092250Z 06009KT 11/M08 A3032 RMK A01 T01091075  RH  027%=      5-min Rain = 0
KBY1 092251Z 05007KT 11/M07 A3032 RMK A01 T01081074  RH  027%=      5-min Rain = 0
KBY1 092252Z 03008KT 11/M07 A3032 RMK A01 T01071073  RH  027%=      5-min Rain = 0
KBY1 092253Z 03009KT 11/M07 A3032 RMK A01 T01071072  RH  028%=      5-min Rain = 0
KBY1 092254Z 03008KT 11/M07 A3032 RMK A01 T01061070  RH  028%=      5-min Rain = 0
KBY1 092255Z 03009KT 11/M07 A3032 RMK A01 T01051070  RH  029%=      5-min Rain = 0
KBY1 092256Z 04009KT 11/M07 A3032 RMK A01 T01051070  RH  029%=      5-min Rain = 0
KBY1 092257Z 03009KT 10/M07 A3032 RMK A01 T01041069  RH  029%=      5-min Rain = 0
KBY1 092258Z 04010KT 10/M07 A3032 RMK A01 T01031070  RH  029%=      5-min Rain = 0
KBY1 092259Z 03009KT 10/M07 A3032 RMK A01 T01031070  RH  029%=      5-min Rain = 0
KBY1 092300Z 03009KT 10/M07 A3032 RMK A01 T01021070  RH  029%=      5-min Rain = 0
KBY1 092301Z 03008KT 10/M07 A3032 RMK A01 T01021069  RH  029%=      5-min Rain = 0
KBY1 092302Z 04008KT 10/M07 A3032 RMK A01 T01011069  RH  029%=      5-min Rain = 0
KBY1 092303Z 03009KT 10/M07 A3032 RMK A01 T01011069  RH  029%=      5-min Rain = 0
KBY1 092304Z 03009KT 10/M07 A3033 RMK A01 T01011069  RH  029%=      5-min Rain = 0
KBY1 092305Z 03008KT 10/M07 A3033 RMK A01 T01011069  RH  030%=      5-min Rain = 0
KBY1 092306Z 04008KT 10/M07 A3033 RMK A01 T01001070  RH  030%=      5-min Rain = 0
KBY1 092307Z 03008KT 10/M07 A3033 RMK A01 T01001069  RH  030%=      5-min Rain = 0
KBY1 092308Z 03008KT 10/M07 A3033 RMK A01 T00991070  RH  030%=      5-min Rain = 0
KBY1 092309Z 04007KT 10/M07 A3033 RMK A01 T00981070  RH  030%=      5-min Rain = 0
KBY1 092310Z 03005KT 10/M07 A3033 RMK A01 T00991069  RH  030%=      5-min Rain = 0
KBY1 092311Z 04007KT 10/M07 A3033 RMK A01 T00981069  RH  030%=      5-min Rain = 0
KBY1 092312Z 04007KT 10/M07 A3033 RMK A01 T00971070  RH  030%=      5-min Rain = 0
KBY1 092313Z 04008KT 10/M07 A3033 RMK A01 T00971069  RH  030%=      5-min Rain = 0
KBY1 092314Z 04007KT 10/M07 A3033 RMK A01 T00961069  RH  030%=      5-min Rain = 0
KBY1 092315Z 04007KT 10/M07 A3033 RMK A01 T00951069  RH  031%=      5-min Rain = 0
KBY1 092316Z 04008KT 10/M07 A3033 RMK A01 T00951070  RH  031%=      5-min Rain = 0
KBY1 092317Z 04008KT 10/M07 A3033 RMK A01 T00951070  RH  031%=      5-min Rain = 0
KBY1 092318Z 04008KT 09/M07 A3033 RMK A01 T00941070  RH  031%=      5-min Rain = 0
KBY1 092319Z 04009KT 09/M07 A3033 RMK A01 T00941069  RH  031%=      5-min Rain = 0
KBY1 092320Z 03008KT 09/M07 A3033 RMK A01 T00941069  RH  031%=      5-min Rain = 0
KBY1 092321Z 04008KT 09/M07 A3033 RMK A01 T00931070  RH  031%=      5-min Rain = 0
KBY1 092322Z 04007KT 09/M07 A3033 RMK A01 T00921070  RH  031%=      5-min Rain = 0
KBY1 092323Z 03006KT 09/M07 A3033 RMK A01 T00911070  RH  031%=      5-min Rain = 0
KBY1 092324Z 03007KT 09/M07 A3033 RMK A01 T00911070  RH  031%=      5-min Rain = 0
KBY1 092325Z 03007KT 09/M07 A3033 RMK A01 T00911070  RH  031%=      5-min Rain = 0
KBY1 092326Z 04007KT 09/M07 A3033 RMK A01 T00901070  RH  032%=      5-min Rain = 0
KBY1 092327Z 03007KT 09/M07 A3033 RMK A01 T00891070  RH  032%=      5-min Rain = 0
KBY1 092328Z 04007KT 09/M07 A3033 RMK A01 T00891070  RH  032%=      5-min Rain = 0
KBY1 092329Z 04008KT 09/M07 A3033 RMK A01 T00891070  RH  032%=      5-min Rain = 0
KBY1 092330Z 04008KT 09/M07 A3033 RMK A01 T00881070  RH  032%=      5-min Rain = 0
KBY1 092331Z 03008KT 09/M07 A3033 RMK A01 T00881070  RH  032%=      5-min Rain = 0
KBY1 092332Z 04007KT 09/M07 A3034 RMK A01 T00881070  RH  032%=      5-min Rain = 0
KBY1 092333Z 04007KT 09/M07 A3034 RMK A01 T00861070  RH  032%=      5-min Rain = 0
KBY1 092334Z 03007KT 09/M07 A3034 RMK A01 T00861070  RH  033%=      5-min Rain = 0
KBY1 092335Z 03007KT 09/M07 A3034 RMK A01 T00861070  RH  033%=      5-min Rain = 0
KBY1 092336Z 03007KT 09/M07 A3034 RMK A01 T00851069  RH  033%=      5-min Rain = 0
KBY1 092337Z 03008KT 09/M07 A3034 RMK A01 T00851070  RH  033%=      5-min Rain = 0
KBY1 092338Z 03008KT 09/M07 A3034 RMK A01 T00851070  RH  033%=      5-min Rain = 0
KBY1 092339Z 03009KT 09/M07 A3034 RMK A01 T00851069  RH  033%=      5-min Rain = 0
KBY1 092340Z 03010KT 08/M07 A3034 RMK A01 T00841069  RH  033%=      5-min Rain = 0
KBY1 092341Z 03008KT 08/M07 A3034 RMK A01 T00841069  RH  033%=      5-min Rain = 0
KBY1 092342Z 03008KT 08/M07 A3034 RMK A01 T00821069  RH  033%=      5-min Rain = 0
KBY1 092343Z 03009KT 08/M07 A3034 RMK A01 T00811069  RH  034%=      5-min Rain = 0
KBY1 092344Z 03008KT 08/M07 A3034 RMK A01 T00801069  RH  034%=      5-min Rain = 0
KBY1 092345Z 03007KT 08/M07 A3034 RMK A01 T00791069  RH  034%=      5-min Rain = 0
KBY1 092346Z 03008KT 08/M07 A3034 RMK A01 T00781069  RH  035%=      5-min Rain = 0
KBY1 092347Z 03008KT 08/M07 A3034 RMK A01 T00771069  RH  035%=      5-min Rain = 0
KBY1 092348Z 03008KT 08/M07 A3034 RMK A01 T00761069  RH  035%=      5-min Rain = 0
KBY1 092349Z 02007KT 08/M07 A3034 RMK A01 T00751069  RH  035%=      5-min Rain = 0
KBY1 092350Z 03007KT 08/M07 A3034 RMK A01 T00751069  RH  035%=      5-min Rain = 0
KBY1 092351Z 03008KT 07/M07 A3034 RMK A01 T00741069  RH  036%=      5-min Rain = 0
KBY1 092352Z 03007KT 07/M07 A3034 RMK A01 T00731068  RH  036%=      5-min Rain = 0
KBY1 092353Z 03008KT 07/M07 A3034 RMK A01 T00731068  RH  036%=      5-min Rain = 0
KBY1 092354Z 03007KT 07/M07 A3035 RMK A01 T00731068  RH  036%=      5-min Rain = 0
KBY1 092355Z 02007KT 07/M07 A3035 RMK A01 T00721068  RH  036%=      5-min Rain = 0
KBY1 092356Z 02007KT 07/M07 A3035 RMK A01 T00701069  RH  036%=      5-min Rain = 0
KBY1 092357Z 03007KT 07/M07 A3035 RMK A01 T00701068  RH  037%=      5-min Rain = 0
KBY1 092358Z 03007KT 07/M07 A3035 RMK A01 T00701068  RH  037%=      5-min Rain = 0
KBY1 092359Z 03007KT 07/M07 A3035 RMK A01 T00681069  RH  037%=      5-min Rain = 0
KBY1 100000Z 03007KT 07/M07 A3035 RMK A01 T00671069  RH  037%=      5-min Rain = 0
KBY1 100001Z 02007KT 07/M07 A3035 RMK A01 T00661069  RH  038%=      5-min Rain = 0
KBY1 100002Z 02008KT 07/M07 A3035 RMK A01 T00661068  RH  038%=      5-min Rain = 0
KBY1 100003Z 02008KT 07/M07 A3035 RMK A01 T00651068  RH  038%=      5-min Rain = 0
KBY1 100004Z 03008KT 07/M07 A3035 RMK A01 T00651068  RH  038%=      5-min Rain = 0
KBY1 100005Z 02008KT 06/M07 A3035 RMK A01 T00641068  RH  038%=      5-min Rain = 0
KBY1 100006Z 03008KT 06/M07 A3035 RMK A01 T00631068  RH  038%=      5-min Rain = 0
KBY1 100007Z 02008KT 06/M07 A3035 RMK A01 T00631068  RH  039%=      5-min Rain = 0
KBY1 100008Z 02008KT 06/M07 A3035 RMK A01 T00631068  RH  039%=      5-min Rain = 0
KBY1 100009Z 02008KT 06/M07 A3035 RMK A01 T00621068  RH  039%=      5-min Rain = 0
KBY1 100010Z 03007KT 06/M07 A3035 RMK A01 T00611068  RH  039%=      5-min Rain = 0
KBY1 100011Z 03007KT 06/M07 A3035 RMK A01 T00611068  RH  039%=      5-min Rain = 0
KBY1 100012Z 03007KT 06/M07 A3035 RMK A01 T00611068  RH  039%=      5-min Rain = 0
KBY1 100013Z 03007KT 06/M07 A3035 RMK A01 T00611067  RH  039%=      5-min Rain = 0
KBY1 100014Z 03007KT 06/M07 A3035 RMK A01 T00601067  RH  039%=      5-min Rain = 0
KBY1 100015Z 03007KT 06/M07 A3036 RMK A01 T00601067  RH  040%=      5-min Rain = 0
KBY1 100016Z 02008KT 06/M07 A3036 RMK A01 T00601067  RH  040%=      5-min Rain = 0
KBY1 100017Z 03006KT 06/M07 A3036 RMK A01 T00591067  RH  040%=      5-min Rain = 0
KBY1 100018Z 03007KT 06/M07 A3036 RMK A01 T00601067  RH  040%=      5-min Rain = 0
KBY1 100019Z 02007KT 06/M07 A3036 RMK A01 T00591067  RH  040%=      5-min Rain = 0
KBY1 100020Z 03007KT 06/M07 A3036 RMK A01 T00581067  RH  040%=      5-min Rain = 0
KBY1 100021Z 03007KT 06/M07 A3036 RMK A01 T00581067  RH  040%=      5-min Rain = 0
KBY1 100022Z 04007KT 06/M07 A3036 RMK A01 T00581067  RH  040%=      5-min Rain = 0
KBY1 100023Z 03007KT 06/M07 A3036 RMK A01 T00581067  RH  040%=      5-min Rain = 0
KBY1 100024Z 03007KT 06/M07 A3036 RMK A01 T00581067  RH  040%=      5-min Rain = 0
KBY1 100025Z 03007KT 06/M07 A3036 RMK A01 T00571067  RH  040%=      5-min Rain = 0
KBY1 100026Z 03007KT 06/M07 A3036 RMK A01 T00571067  RH  040%=      5-min Rain = 0
KBY1 100027Z 03007KT 06/M07 A3036 RMK A01 T00561067  RH  041%=      5-min Rain = 0
KBY1 100028Z 03006KT 06/M07 A3036 RMK A01 T00551067  RH  041%=      5-min Rain = 0
KBY1 100029Z 04006KT 06/M07 A3036 RMK A01 T00551067  RH  041%=      5-min Rain = 0
KBY1 100030Z 03005KT 06/M07 A3036 RMK A01 T00551067  RH  041%=      5-min Rain = 0
KBY1 100031Z 04005KT 05/M07 A3036 RMK A01 T00541067  RH  041%=      5-min Rain = 0
KBY1 100032Z 04006KT 05/M07 A3036 RMK A01 T00541067  RH  041%=      5-min Rain = 0
KBY1 100033Z 04005KT 05/M07 A3036 RMK A01 T00541067  RH  041%=      5-min Rain = 0
KBY1 100034Z 04005KT 05/M07 A3036 RMK A01 T00541067  RH  041%=      5-min Rain = 0
KBY1 100035Z 04005KT 05/M07 A3036 RMK A01 T00541067  RH  041%=      5-min Rain = 0
KBY1 100036Z 03005KT 05/M07 A3036 RMK A01 T00541067  RH  041%=      5-min Rain = 0
KBY1 100037Z 03005KT 05/M07 A3036 RMK A01 T00541067  RH  041%=      5-min Rain = 0
KBY1 100038Z 03005KT 05/M07 A3036 RMK A01 T00531067  RH  042%=      5-min Rain = 0
KBY1 100039Z 03005KT 05/M07 A3036 RMK A01 T00531067  RH  042%=      5-min Rain = 0
KBY1 100040Z 03005KT 05/M07 A3036 RMK A01 T00521067  RH  042%=      5-min Rain = 0
KBY1 100041Z 03004KT 05/M07 A3036 RMK A01 T00511067  RH  042%=      5-min Rain = 0
KBY1 100042Z 03004KT 05/M07 A3036 RMK A01 T00511067  RH  042%=      5-min Rain = 0
KBY1 100043Z 04004KT 05/M07 A3036 RMK A01 T00511067  RH  042%=      5-min Rain = 0
KBY1 100044Z 04004KT 05/M07 A3036 RMK A01 T00501067  RH  043%=      5-min Rain = 0
KBY1 100045Z 04003KT 05/M07 A3036 RMK A01 T00501066  RH  043%=      5-min Rain = 0
KBY1 100046Z 05002KT 05/M07 A3036 RMK A01 T00491066  RH  043%=      5-min Rain = 0
KBY1 100047Z 04002KT 05/M07 A3036 RMK A01 T00481066  RH  043%=      5-min Rain = 0
KBY1 100048Z 05001KT 05/M07 A3036 RMK A01 T00481066  RH  043%=      5-min Rain = 0
KBY1 100049Z 04001KT 05/M07 A3036 RMK A01 T00481066  RH  043%=      5-min Rain = 0
KBY1 100050Z 05001KT 05/M07 A3036 RMK A01 T00471067  RH  043%=      5-min Rain = 0
KBY1 100051Z 05001KT 05/M07 A3036 RMK A01 T00481067  RH  043%=      5-min Rain = 0
KBY1 100052Z 04000KT 05/M07 A3036 RMK A01 T00481066  RH  043%=      5-min Rain = 0
KBY1 100053Z 00000KT 05/M07 A3036 RMK A01 T00481066  RH  044%=      5-min Rain = 0
KBY1 100054Z 08001KT 05/M07 A3036 RMK A01 T00471066  RH  044%=      5-min Rain = 0
KBY1 100055Z 06000KT 05/M07 A3036 RMK A01 T00471066  RH  044%=      5-min Rain = 0
KBY1 100056Z 00000KT 05/M07 A3036 RMK A01 T00461066  RH  044%=      5-min Rain = 0
KBY1 100057Z 20001KT 05/M07 A3036 RMK A01 T00451067  RH  044%=      5-min Rain = 0
KBY1 100058Z 19001KT 04/M07 A3036 RMK A01 T00431068  RH  044%=      5-min Rain = 0
KBY1 100059Z 20000KT 04/M07 A3036 RMK A01 T00431068  RH  045%=      5-min Rain = 0
KBY1 100100Z 00000KT 04/M07 A3036 RMK A01 T00421067  RH  045%=      5-min Rain = 0
KBY1 100101Z 00000KT 04/M07 A3036 RMK A01 T00411068  RH  045%=      5-min Rain = 0
KBY1 100102Z 00000KT 04/M07 A3036 RMK A01 T00411068  RH  045%=      5-min Rain = 0
KBY1 100103Z 00000KT 04/M07 A3036 RMK A01 T00411068  RH  045%=      5-min Rain = 0
KBY1 100104Z 00000KT 04/M07 A3036 RMK A01 T00411068  RH  045%=      5-min Rain = 0
KBY1 100105Z 00000KT 04/M07 A3036 RMK A01 T00421068  RH  045%=      5-min Rain = 0
KBY1 100106Z 00000KT 04/M07 A3036 RMK A01 T00421068  RH  044%=      5-min Rain = 0
KBY1 100107Z 00000KT 04/M07 A3036 RMK A01 T00421068  RH  044%=      5-min Rain = 0
KBY1 100108Z 00000KT 04/M07 A3036 RMK A01 T00421068  RH  044%=      5-min Rain = 0
KBY1 100109Z 00000KT 04/M07 A3036 RMK A01 T00431068  RH  044%=      5-min Rain = 0
KBY1 100110Z 00000KT 04/M07 A3036 RMK A01 T00421068  RH  044%=      5-min Rain = 0
KBY1 100111Z 00000KT 04/M07 A3036 RMK A01 T00431068  RH  044%=      5-min Rain = 0
KBY1 100112Z 06000KT 04/M07 A3036 RMK A01 T00431069  RH  044%=      5-min Rain = 0
KBY1 100113Z 02000KT 04/M07 A3036 RMK A01 T00401070  RH  044%=      5-min Rain = 0
KBY1 100114Z 02001KT 04/M07 A3036 RMK A01 T00381070  RH  045%=      5-min Rain = 0
KBY1 100115Z 02001KT 04/M07 A3036 RMK A01 T00371070  RH  046%=      5-min Rain = 0
KBY1 100116Z 01002KT 04/M07 A3036 RMK A01 T00371069  RH  046%=      5-min Rain = 0
KBY1 100117Z 01003KT 04/M07 A3037 RMK A01 T00361070  RH  046%=      5-min Rain = 0
KBY1 100118Z 00003KT 03/M07 A3037 RMK A01 T00341070  RH  046%=      5-min Rain = 0
KBY1 100119Z 35003KT 03/M07 A3037 RMK A01 T00311070  RH  047%=      5-min Rain = 0
KBY1 100120Z 35003KT 03/M07 A3037 RMK A01 T00301069  RH  048%=      5-min Rain = 0
KBY1 100121Z 36003KT 03/M07 A3037 RMK A01 T00301069  RH  048%=      5-min Rain = 0
KBY1 100122Z 00003KT 03/M07 A3037 RMK A01 T00311068  RH  048%=      5-min Rain = 0
KBY1 100123Z 00003KT 03/M07 A3037 RMK A01 T00321068  RH  048%=      5-min Rain = 0
KBY1 100124Z 00002KT 03/M07 A3037 RMK A01 T00331068  RH  048%=      5-min Rain = 0
KBY1 100125Z 01001KT 03/M07 A3037 RMK A01 T00331068  RH  047%=      5-min Rain = 0
KBY1 100126Z 34001KT 03/M07 A3037 RMK A01 T00341068  RH  047%=      5-min Rain = 0
KBY1 100127Z 33000KT 03/M07 A3037 RMK A01 T00301072  RH  047%=      5-min Rain = 0
KBY1 100128Z 00000KT 03/M07 A3037 RMK A01 T00261071  RH  049%=      5-min Rain = 0
KBY1 100129Z 32000KT 02/M07 A3037 RMK A01 T00221072  RH  050%=      5-min Rain = 0
KBY1 100130Z 33001KT 02/M07 A3037 RMK A01 T00211070  RH  051%=      5-min Rain = 0
KBY1 100131Z 35001KT 02/M07 A3037 RMK A01 T00211069  RH  051%=      5-min Rain = 0
KBY1 100132Z 36001KT 02/M07 A3037 RMK A01 T00231068  RH  051%=      5-min Rain = 0
KBY1 100133Z 00001KT 03/M07 A3037 RMK A01 T00251067  RH  051%=      5-min Rain = 0
KBY1 100134Z 01001KT 03/M07 A3037 RMK A01 T00261067  RH  050%=      5-min Rain = 0
KBY1 100135Z 02000KT 03/M07 A3037 RMK A01 T00271066  RH  050%=      5-min Rain = 0
KBY1 100136Z 00000KT 03/M07 A3037 RMK A01 T00301066  RH  049%=      5-min Rain = 0
KBY1 100137Z 00000KT 03/M07 A3037 RMK A01 T00321066  RH  049%=      5-min Rain = 0
KBY1 100138Z 00000KT 03/M07 A3037 RMK A01 T00341067  RH  048%=      5-min Rain = 0
KBY1 100139Z 00000KT 04/M07 A3037 RMK A01 T00361067  RH  047%=      5-min Rain = 0
KBY1 100140Z 00000KT 04/M07 A3037 RMK A01 T00361067  RH  047%=      5-min Rain = 0
KBY1 100141Z 00000KT 04/M07 A3037 RMK A01 T00371067  RH  047%=      5-min Rain = 0
KBY1 100142Z 00000KT 04/M07 A3037 RMK A01 T00381066  RH  046%=      5-min Rain = 0
KBY1 100143Z 00000KT 04/M07 A3037 RMK A01 T00381067  RH  046%=      5-min Rain = 0
KBY1 100144Z 00000KT 04/M07 A3038 RMK A01 T00391067  RH  046%=      5-min Rain = 0
KBY1 100145Z 27000KT 04/M07 A3038 RMK A01 T00391066  RH  046%=      5-min Rain = 0
KBY1 100146Z 27000KT 04/M06 A3038 RMK A01 T00381064  RH  047%=      5-min Rain = 0
KBY1 100147Z 27000KT 04/M06 A3038 RMK A01 T00361064  RH  048%=      5-min Rain = 0
KBY1 100148Z 23002KT 04/M06 A3037 RMK A01 T00351064  RH  049%=      5-min Rain = 0
KBY1 100149Z 24002KT 03/M06 A3037 RMK A01 T00321062  RH  050%=      5-min Rain = 0
KBY1 100150Z 23002KT 03/M06 A3037 RMK A01 T00301063  RH  051%=      5-min Rain = 0
KBY1 100151Z 23002KT 03/M06 A3037 RMK A01 T00291063  RH  051%=      5-min Rain = 0
KBY1 100152Z 23002KT 03/M06 A3037 RMK A01 T00281062  RH  052%=      5-min Rain = 0
KBY1 100153Z 24002KT 03/M06 A3037 RMK A01 T00281062  RH  052%=      5-min Rain = 0
KBY1 100154Z 25001KT 03/M06 A3038 RMK A01 T00281062  RH  052%=      5-min Rain = 0
KBY1 100155Z 26000KT 03/M06 A3038 RMK A01 T00281064  RH  051%=      5-min Rain = 0
KBY1 100156Z 00000KT 03/M06 A3038 RMK A01 T00301064  RH  050%=      5-min Rain = 0
KBY1 100157Z 00000KT 03/M06 A3038 RMK A01 T00321064  RH  050%=      5-min Rain = 0
KBY1 100158Z 00000KT 03/M06 A3038 RMK A01 T00321062  RH  050%=      5-min Rain = 0
KBY1 100159Z 00000KT 03/M06 A3038 RMK A01 T00321060  RH  051%=      5-min Rain = 0
KBY1 100200Z 00000KT 03/M06 A3038 RMK A01 T00301057  RH  053%=      5-min Rain = 0
KBY1 100201Z 23000KT 03/M06 A3038 RMK A01 T00281056  RH  054%=      5-min Rain = 0
KBY1 100202Z 23000KT 03/M06 A3038 RMK A01 T00271057  RH  054%=      5-min Rain = 0
KBY1 100203Z 00000KT 03/M06 A3038 RMK A01 T00261057  RH  054%=      5-min Rain = 0
KBY1 100204Z 00000KT 03/M06 A3038 RMK A01 T00251058  RH  054%=      5-min Rain = 0
KBY1 100205Z 25000KT 03/M06 A3038 RMK A01 T00251057  RH  055%=      5-min Rain = 0
KBY1 100206Z 24001KT 02/M06 A3038 RMK A01 T00241060  RH  054%=      5-min Rain = 0
KBY1 100207Z 24000KT 03/M06 A3038 RMK A01 T00251063  RH  052%=      5-min Rain = 0
KBY1 100208Z 00000KT 03/M06 A3038 RMK A01 T00261063  RH  052%=      5-min Rain = 0
KBY1 100209Z 00000KT 03/M06 A3038 RMK A01 T00271063  RH  051%=      5-min Rain = 0
KBY1 100210Z 00000KT 03/M06 A3038 RMK A01 T00281064  RH  051%=      5-min Rain = 0
KBY1 100211Z 00000KT 03/M06 A3038 RMK A01 T00291064  RH  051%=      5-min Rain = 0
KBY1 100212Z 00000KT 03/M06 A3038 RMK A01 T00301064  RH  050%=      5-min Rain = 0
KBY1 100213Z 00000KT 03/M06 A3038 RMK A01 T00301064  RH  050%=      5-min Rain = 0
KBY1 100214Z 00000KT 03/M06 A3038 RMK A01 T00301064  RH  050%=      5-min Rain = 0
KBY1 100215Z 32000KT 03/M06 A3038 RMK A01 T00301064  RH  050%=      5-min Rain = 0
KBY1 100216Z 32001KT 03/M06 A3038 RMK A01 T00291064  RH  051%=      5-min Rain = 0
KBY1 100217Z 32001KT 03/M06 A3038 RMK A01 T00271064  RH  051%=      5-min Rain = 0
KBY1 100218Z 32000KT 03/M07 A3038 RMK A01 T00261065  RH  051%=      5-min Rain = 0
KBY1 100219Z 00000KT 03/M07 A3038 RMK A01 T00261065  RH  051%=      5-min Rain = 0
KBY1 100220Z 32000KT 03/M07 A3038 RMK A01 T00271066  RH  051%=      5-min Rain = 0
KBY1 100221Z 29000KT 03/M07 A3038 RMK A01 T00261066  RH  051%=      5-min Rain = 0
KBY1 100222Z 28000KT 03/M07 A3038 RMK A01 T00271066  RH  050%=      5-min Rain = 0
KBY1 100223Z 33001KT 03/M07 A3038 RMK A01 T00261065  RH  051%=      5-min Rain = 0
KBY1 100224Z 33001KT 02/M07 A3038 RMK A01 T00231065  RH  052%=      5-min Rain = 0
KBY1 100225Z 30001KT 02/M06 A3038 RMK A01 T00211064  RH  054%=      5-min Rain = 0
KBY1 100226Z 30001KT 02/M06 A3038 RMK A01 T00191063  RH  055%=      5-min Rain = 0
KBY1 100227Z 29001KT 02/M06 A3038 RMK A01 T00181064  RH  055%=      5-min Rain = 0
KBY1 100228Z 28001KT 02/M06 A3038 RMK A01 T00171064  RH  055%=      5-min Rain = 0
KBY1 100229Z 28000KT 02/M06 A3038 RMK A01 T00151064  RH  056%=      5-min Rain = 0
KBY1 100230Z 00000KT 01/M07 A3038 RMK A01 T00101065  RH  057%=      5-min Rain = 0
KBY1 100231Z 00000KT 01/M07 A3038 RMK A01 T00071065  RH  058%=      5-min Rain = 0
KBY1 100232Z 00000KT 01/M07 A3038 RMK A01 T00071065  RH  059%=      5-min Rain = 0
KBY1 100233Z 00000KT 01/M06 A3038 RMK A01 T00071064  RH  059%=      5-min Rain = 0
KBY1 100234Z 00000KT 01/M06 A3038 RMK A01 T00071064  RH  059%=      5-min Rain = 0
KBY1 100235Z 33001KT 01/M06 A3038 RMK A01 T00081063  RH  059%=      5-min Rain = 0
KBY1 100236Z 33000KT 01/M06 A3038 RMK A01 T00081063  RH  059%=      5-min Rain = 0
KBY1 100237Z 00000KT 01/M06 A3038 RMK A01 T00081063  RH  059%=      5-min Rain = 0
KBY1 100238Z 00000KT 01/M06 A3038 RMK A01 T00081064  RH  059%=      5-min Rain = 0
KBY1 100239Z 00000KT 01/M06 A3038 RMK A01 T00071064  RH  059%=      5-min Rain = 0
KBY1 100240Z 00000KT 01/M06 A3038 RMK A01 T00061063  RH  060%=      5-min Rain = 0
KBY1 100241Z 00000KT 01/M06 A3038 RMK A01 T00061063  RH  060%=      5-min Rain = 0
KBY1 100242Z 00000KT 01/M06 A3038 RMK A01 T00061064  RH  060%=      5-min Rain = 0
KBY1 100243Z 00000KT 01/M06 A3038 RMK A01 T00061064  RH  060%=      5-min Rain = 0
KBY1 100244Z 00000KT 01/M06 A3038 RMK A01 T00061064  RH  059%=      5-min Rain = 0
KBY1 100245Z 00000KT 01/M07 A3038 RMK A01 T00071065  RH  059%=      5-min Rain = 0
KBY1 100246Z 00000KT 01/M07 A3038 RMK A01 T00081065  RH  058%=      5-min Rain = 0
KBY1 100247Z 00000KT 01/M07 A3038 RMK A01 T00091065  RH  058%=      5-min Rain = 0
KBY1 100248Z 00000KT 01/M07 A3038 RMK A01 T00101065  RH  057%=      5-min Rain = 0
KBY1 100249Z 00000KT 01/M07 A3038 RMK A01 T00111066  RH  057%=      5-min Rain = 0
KBY1 100250Z 00000KT 01/M07 A3038 RMK A01 T00121066  RH  056%=      5-min Rain = 0
KBY1 100251Z 00000KT 01/M07 A3038 RMK A01 T00131066  RH  055%=      5-min Rain = 0
KBY1 100252Z 00000KT 01/M07 A3038 RMK A01 T00131067  RH  055%=      5-min Rain = 0
KBY1 100253Z 00000KT 01/M07 A3038 RMK A01 T00131068  RH  055%=      5-min Rain = 0
KBY1 100254Z 00000KT 01/M07 A3038 RMK A01 T00091071  RH  055%=      5-min Rain = 0
KBY1 100255Z 00000KT 01/M07 A3038 RMK A01 T00081070  RH  056%=      5-min Rain = 0
KBY1 100256Z 00000KT 01/M07 A3038 RMK A01 T00081069  RH  056%=      5-min Rain = 0
KBY1 100257Z 00000KT 01/M07 A3038 RMK A01 T00081070  RH  056%=      5-min Rain = 0
KBY1 100258Z 00000KT 01/M07 A3038 RMK A01 T00061070  RH  056%=      5-min Rain = 0
KBY1 100259Z 00000KT 01/M07 A3038 RMK A01 T00061070  RH  057%=      5-min Rain = 0
KBY1 100300Z 00000KT 01/M07 A3038 RMK A01 T00061071  RH  056%=      5-min Rain = 0
KBY1 100301Z 35000KT 01/M07 A3038 RMK A01 T00061071  RH  057%=      5-min Rain = 0
KBY1 100302Z 00000KT 00/M07 A3038 RMK A01 T00021074  RH  057%=      5-min Rain = 0
KBY1 100303Z 00000KT M00/M07 A3038 RMK A01 T10011073  RH  058%=      5-min Rain = 0
KBY1 100304Z 00000KT M00/M07 A3038 RMK A01 T10031073  RH  059%=      5-min Rain = 0
KBY1 100305Z 00000KT M01/M07 A3038 RMK A01 T10051073  RH  060%=      5-min Rain = 0
KBY1 100306Z 00000KT M01/M07 A3038 RMK A01 T10061073  RH  061%=      5-min Rain = 0
KBY1 100307Z 00000KT M01/M07 A3038 RMK A01 T10071073  RH  061%=      5-min Rain = 0
KBY1 100308Z 00000KT M01/M07 A3038 RMK A01 T10071072  RH  062%=      5-min Rain = 0
KBY1 100309Z 00000KT M01/M07 A3038 RMK A01 T10061070  RH  062%=      5-min Rain = 0
KBY1 100310Z 00000KT M00/M07 A3038 RMK A01 T10031069  RH  061%=      5-min Rain = 0
KBY1 100311Z 00000KT M00/M07 A3038 RMK A01 T10011069  RH  060%=      5-min Rain = 0
KBY1 100312Z 00000KT 00/07 A3038 RMK A01 T00000-69  RH  060%=      5-min Rain = 0
KBY1 100313Z 00000KT 00/M07 A3038 RMK A01 T00021068  RH  059%=      5-min Rain = 0
KBY1 100314Z 00000KT 00/M07 A3038 RMK A01 T00041068  RH  058%=      5-min Rain = 0
KBY1 100315Z 32000KT 01/M07 A3038 RMK A01 T00051069  RH  058%=      5-min Rain = 0
KBY1 100316Z 34000KT 01/M07 A3038 RMK A01 T00051070  RH  057%=      5-min Rain = 0
KBY1 100317Z 32001KT 01/M07 A3038 RMK A01 T00051070  RH  057%=      5-min Rain = 0
KBY1 100318Z 31001KT 00/M07 A3038 RMK A01 T00031071  RH  057%=      5-min Rain = 0
KBY1 100319Z 31000KT 00/M07 A3038 RMK A01 T00011072  RH  058%=      5-min Rain = 0
KBY1 100320Z 00000KT M00/M07 A3038 RMK A01 T10021073  RH  059%=      5-min Rain = 0
KBY1 100321Z 00000KT M01/M08 A3038 RMK A01 T10061078  RH  058%=      5-min Rain = 0
KBY1 100322Z 35000KT M01/M08 A3038 RMK A01 T10111079  RH  060%=      5-min Rain = 0
KBY1 100323Z 02000KT M02/M08 A3038 RMK A01 T10151078  RH  062%=      5-min Rain = 0
KBY1 100324Z 35001KT M02/M08 A3038 RMK A01 T10171078  RH  063%=      5-min Rain = 0
KBY1 100325Z 33002KT M02/M08 A3038 RMK A01 T10191077  RH  064%=      5-min Rain = 0
KBY1 100326Z 33001KT M02/M08 A3038 RMK A01 T10191075  RH  066%=      5-min Rain = 0
KBY1 100327Z 32000KT M02/M07 A3038 RMK A01 T10191073  RH  066%=      5-min Rain = 0
KBY1 100328Z 00000KT M02/M07 A3038 RMK A01 T10191074  RH  066%=      5-min Rain = 0
KBY1 100329Z 00000KT M02/M07 A3039 RMK A01 T10191074  RH  066%=      5-min Rain = 0
KBY1 100330Z 00000KT M02/M07 A3039 RMK A01 T10201074  RH  067%=      5-min Rain = 0
KBY1 100331Z 00000KT M02/M07 A3038 RMK A01 T10201074  RH  067%=      5-min Rain = 0
KBY1 100332Z 00000KT M02/M07 A3038 RMK A01 T10211074  RH  067%=      5-min Rain = 0
KBY1 100333Z 00000KT M02/M08 A3038 RMK A01 T10211075  RH  067%=      5-min Rain = 0
KBY1 100334Z 00000KT M02/M08 A3038 RMK A01 T10241078  RH  066%=      5-min Rain = 0
KBY1 100335Z 16000KT M03/M08 A3038 RMK A01 T10261081  RH  066%=      5-min Rain = 0
KBY1 100336Z 16000KT M03/M08 A3038 RMK A01 T10281081  RH  067%=      5-min Rain = 0
KBY1 100337Z 16000KT M03/M08 A3038 RMK A01 T10301081  RH  068%=      5-min Rain = 0
KBY1 100338Z 00000KT M03/M08 A3038 RMK A01 T10311080  RH  069%=      5-min Rain = 0
KBY1 100339Z 00000KT M03/M08 A3038 RMK A01 T10311076  RH  071%=      5-min Rain = 0
KBY1 100340Z 00000KT M03/M07 A3038 RMK A01 T10291074  RH  071%=      5-min Rain = 0
KBY1 100341Z 00000KT M03/M07 A3038 RMK A01 T10281072  RH  071%=      5-min Rain = 0
KBY1 100342Z 00000KT M03/M07 A3038 RMK A01 T10271072  RH  071%=      5-min Rain = 0
KBY1 100343Z 00000KT M03/M07 A3038 RMK A01 T10261073  RH  071%=      5-min Rain = 0
KBY1 100344Z 00000KT M03/M07 A3038 RMK A01 T10261073  RH  070%=      5-min Rain = 0
KBY1 100345Z 00000KT M03/M07 A3038 RMK A01 T10261074  RH  070%=      5-min Rain = 0
KBY1 100346Z 00000KT M03/M07 A3038 RMK A01 T10261074  RH  069%=      5-min Rain = 0
KBY1 100347Z 00000KT M03/M08 A3038 RMK A01 T10271075  RH  070%=      5-min Rain = 0
KBY1 100348Z 00000KT M03/M08 A3038 RMK A01 T10271075  RH  070%=      5-min Rain = 0
KBY1 100349Z 00000KT M03/M07 A3038 RMK A01 T10261072  RH  071%=      5-min Rain = 0
KBY1 100350Z 00000KT M02/M07 A3038 RMK A01 T10221069  RH  070%=      5-min Rain = 0
KBY1 100351Z 00000KT M02/M07 A3038 RMK A01 T10201070  RH  069%=      5-min Rain = 0
KBY1 100352Z 25000KT M02/M07 A3038 RMK A01 T10221074  RH  068%=      5-min Rain = 0
KBY1 100353Z 25002KT M03/M08 A3038 RMK A01 T10251076  RH  068%=      5-min Rain = 0
KBY1 100354Z 27003KT M03/M08 A3038 RMK A01 T10271075  RH  069%=      5-min Rain = 0
KBY1 100355Z 27002KT M03/M07 A3039 RMK A01 T10271073  RH  071%=      5-min Rain = 0
KBY1 100356Z 29004KT M02/M07 A3038 RMK A01 T10231068  RH  071%=      5-min Rain = 0
KBY1 100357Z 28004KT M02/M07 A3038 RMK A01 T10201067  RH  070%=      5-min Rain = 0
KBY1 100358Z 29004KT M02/M07 A3038 RMK A01 T10171066  RH  069%=      5-min Rain = 0
KBY1 100359Z 30005KT M01/M07 A3038 RMK A01 T10141066  RH  068%=      5-min Rain = 0
KBY1 100400Z 30005KT M01/M07 A3038 RMK A01 T10121066  RH  067%=      5-min Rain = 0
KBY1 100401Z 29005KT M01/M07 A3038 RMK A01 T10111066  RH  066%=      5-min Rain = 0
KBY1 100402Z 29005KT M01/M07 A3038 RMK A01 T10091066  RH  065%=      5-min Rain = 0
KBY1 100403Z 29005KT M01/M07 A3038 RMK A01 T10081066  RH  065%=      5-min Rain = 0
KBY1 100404Z 30004KT M01/M07 A3038 RMK A01 T10061066  RH  064%=      5-min Rain = 0
KBY1 100405Z 30004KT M00/M07 A3038 RMK A01 T10041066  RH  063%=      5-min Rain = 0
KBY1 100406Z 30004KT M00/M07 A3039 RMK A01 T10041066  RH  063%=      5-min Rain = 0
KBY1 100407Z 31003KT M00/M07 A3039 RMK A01 T10031067  RH  062%=      5-min Rain = 0
KBY1 100408Z 26000KT M01/M07 A3039 RMK A01 T10061070  RH  062%=      5-min Rain = 0
KBY1 100409Z 28001KT M01/M07 A3039 RMK A01 T10081070  RH  063%=      5-min Rain = 0
KBY1 100410Z 29001KT M01/M07 A3039 RMK A01 T10091069  RH  064%=      5-min Rain = 0
KBY1 100411Z 29000KT M01/M07 A3039 RMK A01 T10101070  RH  064%=      5-min Rain = 0
KBY1 100412Z 29001KT M01/M07 A3039 RMK A01 T10111070  RH  064%=      5-min Rain = 0
KBY1 100413Z 02001KT M01/M07 A3039 RMK A01 T10131071  RH  065%=      5-min Rain = 0
KBY1 100414Z 06001KT M02/M07 A3039 RMK A01 T10151071  RH  066%=      5-min Rain = 0
KBY1 100415Z 02001KT M02/M07 A3039 RMK A01 T10161070  RH  066%=      5-min Rain = 0
KBY1 100416Z 35001KT M02/M07 A3039 RMK A01 T10151070  RH  066%=      5-min Rain = 0
KBY1 100417Z 04000KT M02/M07 A3039 RMK A01 T10161071  RH  066%=      5-min Rain = 0
KBY1 100418Z 03001KT M02/M07 A3039 RMK A01 T10171072  RH  066%=      5-min Rain = 0
KBY1 100419Z 03000KT M02/M07 A3039 RMK A01 T10191072  RH  067%=      5-min Rain = 0
KBY1 100420Z 04000KT M02/M07 A3039 RMK A01 T10201071  RH  068%=      5-min Rain = 0
KBY1 100421Z 09001KT M02/M07 A3039 RMK A01 T10201071  RH  068%=      5-min Rain = 0
KBY1 100422Z 16001KT M02/M07 A3039 RMK A01 T10221072  RH  068%=      5-min Rain = 0
KBY1 100423Z 20001KT M02/M07 A3038 RMK A01 T10231073  RH  069%=      5-min Rain = 0
KBY1 100424Z 21001KT M02/M07 A3038 RMK A01 T10241073  RH  069%=      5-min Rain = 0
KBY1 100425Z 22001KT M03/M07 A3039 RMK A01 T10251072  RH  070%=      5-min Rain = 0
KBY1 100426Z 23001KT M02/M07 A3039 RMK A01 T10241072  RH  070%=      5-min Rain = 0
KBY1 100427Z 23001KT M03/M07 A3039 RMK A01 T10251073  RH  069%=      5-min Rain = 0
KBY1 100428Z 24001KT M03/M07 A3039 RMK A01 T10251073  RH  069%=      5-min Rain = 0
KBY1 100429Z 24001KT M03/M07 A3039 RMK A01 T10251073  RH  070%=      5-min Rain = 0
KBY1 100430Z 24001KT M03/M07 A3039 RMK A01 T10251073  RH  069%=      5-min Rain = 0
KBY1 100431Z 26002KT M03/M07 A3039 RMK A01 T10251074  RH  069%=      5-min Rain = 0
KBY1 100432Z 28001KT M03/M07 A3039 RMK A01 T10261074  RH  069%=      5-min Rain = 0
KBY1 100433Z 29003KT M03/M07 A3039 RMK A01 T10261074  RH  069%=      5-min Rain = 0
KBY1 100434Z 29004KT M03/M08 A3039 RMK A01 T10271076  RH  069%=      5-min Rain = 0
KBY1 100435Z 29003KT M03/M08 A3039 RMK A01 T10281076  RH  069%=      5-min Rain = 0
KBY1 100436Z 29003KT M03/M08 A3038 RMK A01 T10291076  RH  070%=      5-min Rain = 0
KBY1 100437Z 30003KT M03/M08 A3038 RMK A01 T10291075  RH  071%=      5-min Rain = 0
KBY1 100438Z 30003KT M03/M07 A3038 RMK A01 T10291074  RH  071%=      5-min Rain = 0
KBY1 100439Z 30003KT M03/M07 A3038 RMK A01 T10291073  RH  071%=      5-min Rain = 0
KBY1 100440Z 30003KT M03/M07 A3038 RMK A01 T10291074  RH  071%=      5-min Rain = 0
KBY1 100441Z 30003KT M03/M07 A3038 RMK A01 T10291074  RH  071%=      5-min Rain = 0
KBY1 100442Z 30003KT M03/M07 A3038 RMK A01 T10291073  RH  071%=      5-min Rain = 0
KBY1 100443Z 29003KT M03/M07 A3039 RMK A01 T10291073  RH  071%=      5-min Rain = 0
KBY1 100444Z 29002KT M03/M07 A3039 RMK A01 T10271072  RH  071%=      5-min Rain = 0
KBY1 100445Z 30002KT M03/M07 A3038 RMK A01 T10251072  RH  071%=      5-min Rain = 0
KBY1 100446Z 29002KT M03/M07 A3038 RMK A01 T10251073  RH  070%=      5-min Rain = 0
KBY1 100447Z 28001KT M03/M07 A3038 RMK A01 T10251073  RH  069%=      5-min Rain = 0
KBY1 100448Z 28001KT M03/M07 A3038 RMK A01 T10251074  RH  069%=      5-min Rain = 0
KBY1 100449Z 27001KT M03/M08 A3038 RMK A01 T10261075  RH  069%=      5-min Rain = 0
KBY1 100450Z 29002KT M03/M08 A3038 RMK A01 T10281075  RH  070%=      5-min Rain = 0
KBY1 100451Z 28002KT M03/M08 A3038 RMK A01 T10291075  RH  071%=      5-min Rain = 0
KBY1 100452Z 29002KT M03/M07 A3038 RMK A01 T10291074  RH  071%=      5-min Rain = 0
KBY1 100453Z 28002KT M03/M07 A3038 RMK A01 T10291073  RH  072%=      5-min Rain = 0
KBY1 100454Z 27002KT M03/M07 A3038 RMK A01 T10281073  RH  071%=      5-min Rain = 0
KBY1 100455Z 27002KT M03/M07 A3038 RMK A01 T10271073  RH  071%=      5-min Rain = 0
KBY1 100456Z 31001KT M03/M07 A3038 RMK A01 T10261072  RH  071%=      5-min Rain = 0
KBY1 100457Z 25000KT M03/M07 A3038 RMK A01 T10261073  RH  070%=      5-min Rain = 0
KBY1 100458Z 29001KT M03/M08 A3038 RMK A01 T10261075  RH  069%=      5-min Rain = 0
KBY1 100459Z 30002KT M03/M08 A3038 RMK A01 T10271075  RH  069%=      5-min Rain = 0
KBY1 100500Z 31003KT M03/M07 A3038 RMK A01 T10281074  RH  070%=      5-min Rain = 0
KBY1 100501Z 30005KT M03/M07 A3038 RMK A01 T10281073  RH  071%=      5-min Rain = 0
KBY1 100502Z 30005KT M03/M07 A3038 RMK A01 T10271072  RH  071%=      5-min Rain = 0
KBY1 100503Z 30006KT M03/M07 A3038 RMK A01 T10251071  RH  070%=      5-min Rain = 0
KBY1 100504Z 31005KT M02/M07 A3038 RMK A01 T10221071  RH  069%=      5-min Rain = 0
KBY1 100505Z 31004KT M02/M07 A3038 RMK A01 T10211071  RH  069%=      5-min Rain = 0
KBY1 100506Z 31003KT M02/M07 A3038 RMK A01 T10201071  RH  068%=      5-min Rain = 0
KBY1 100507Z 30004KT M02/M07 A3038 RMK A01 T10201072  RH  068%=      5-min Rain = 0
KBY1 100508Z 31003KT M02/M07 A3038 RMK A01 T10201071  RH  068%=      5-min Rain = 0
KBY1 100509Z 31004KT M02/M07 A3038 RMK A01 T10211071  RH  068%=      5-min Rain = 0
KBY1 100510Z 31003KT M02/M07 A3038 RMK A01 T10211071  RH  068%=      5-min Rain = 0
KBY1 100511Z 29002KT M02/M07 A3038 RMK A01 T10211071  RH  068%=      5-min Rain = 0
KBY1 100512Z 27001KT M02/M07 A3038 RMK A01 T10221073  RH  068%=      5-min Rain = 0
KBY1 100513Z 26002KT M02/M08 A3038 RMK A01 T10241075  RH  068%=      5-min Rain = 0
KBY1 100514Z 26001KT M03/M07 A3038 RMK A01 T10251074  RH  069%=      5-min Rain = 0
KBY1 100515Z 29001KT M03/M07 A3038 RMK A01 T10251073  RH  069%=      5-min Rain = 0
KBY1 100516Z 30002KT M03/M07 A3038 RMK A01 T10251073  RH  070%=      5-min Rain = 0
KBY1 100517Z 30002KT M03/M07 A3038 RMK A01 T10261073  RH  070%=      5-min Rain = 0
KBY1 100518Z 29003KT M03/M07 A3038 RMK A01 T10251072  RH  070%=      5-min Rain = 0
KBY1 100519Z 29002KT M02/M07 A3038 RMK A01 T10231071  RH  070%=      5-min Rain = 0
KBY1 100520Z 28001KT M02/M07 A3038 RMK A01 T10231072  RH  069%=      5-min Rain = 0
KBY1 100521Z 27001KT M02/M07 A3038 RMK A01 T10231072  RH  069%=      5-min Rain = 0
KBY1 100522Z 25001KT M02/M07 A3038 RMK A01 T10231072  RH  069%=      5-min Rain = 0
KBY1 100523Z 25001KT M02/M07 A3038 RMK A01 T10231072  RH  069%=      5-min Rain = 0
KBY1 100524Z 29003KT M03/M07 A3038 RMK A01 T10251073  RH  069%=      5-min Rain = 0
KBY1 100525Z 27002KT M03/M07 A3038 RMK A01 T10251072  RH  070%=      5-min Rain = 0
KBY1 100526Z 29003KT M02/M07 A3038 RMK A01 T10241071  RH  070%=      5-min Rain = 0
KBY1 100527Z 28003KT M02/M07 A3038 RMK A01 T10211068  RH  070%=      5-min Rain = 0
KBY1 100528Z 29003KT M02/M07 A3038 RMK A01 T10191068  RH  069%=      5-min Rain = 0
KBY1 100529Z 29003KT M02/M07 A3038 RMK A01 T10181068  RH  068%=      5-min Rain = 0
KBY1 100530Z 30004KT M02/M07 A3038 RMK A01 T10171069  RH  068%=      5-min Rain = 0
KBY1 100531Z 29005KT M02/M07 A3038 RMK A01 T10171069  RH  068%=      5-min Rain = 0
KBY1 100532Z 29006KT M02/M07 A3038 RMK A01 T10171069  RH  067%=      5-min Rain = 0
KBY1 100533Z 30005KT M02/M07 A3038 RMK A01 T10171069  RH  067%=      5-min Rain = 0
KBY1 100534Z 29005KT M02/M07 A3038 RMK A01 T10171069  RH  067%=      5-min Rain = 0
KBY1 100535Z 30006KT M02/M07 A3038 RMK A01 T10171069  RH  067%=      5-min Rain = 0
KBY1 100536Z 30006KT M02/M07 A3038 RMK A01 T10161069  RH  067%=      5-min Rain = 0
KBY1 100537Z 30005KT M02/M07 A3038 RMK A01 T10171069  RH  067%=      5-min Rain = 0
KBY1 100538Z 30005KT M02/M07 A3038 RMK A01 T10181070  RH  068%=      5-min Rain = 0
KBY1 100539Z 29003KT M02/M07 A3038 RMK A01 T10181070  RH  068%=      5-min Rain = 0
KBY1 100540Z 31004KT M02/M07 A3038 RMK A01 T10191070  RH  068%=      5-min Rain = 0
KBY1 100541Z 29003KT M02/M07 A3038 RMK A01 T10191071  RH  068%=      5-min Rain = 0
KBY1 100542Z 28003KT M02/M07 A3038 RMK A01 T10191071  RH  068%=      5-min Rain = 0
KBY1 100543Z 28004KT M02/M07 A3038 RMK A01 T10191071  RH  068%=      5-min Rain = 0
KBY1 100544Z 29004KT M02/M07 A3038 RMK A01 T10191070  RH  068%=      5-min Rain = 0
KBY1 100545Z 28003KT M02/M07 A3038 RMK A01 T10191070  RH  068%=      5-min Rain = 0
KBY1 100546Z 29004KT M02/M07 A3038 RMK A01 T10181070  RH  068%=      5-min Rain = 0
KBY1 100547Z 29005KT M02/M07 A3038 RMK A01 T10181070  RH  068%=      5-min Rain = 0
KBY1 100548Z 29005KT M02/M07 A3038 RMK A01 T10171070  RH  067%=      5-min Rain = 0
KBY1 100549Z 29005KT M02/M07 A3038 RMK A01 T10171069  RH  067%=      5-min Rain = 0
KBY1 100550Z 30006KT M02/M07 A3037 RMK A01 T10161069  RH  067%=      5-min Rain = 0
KBY1 100551Z 29007KT M02/M07 A3037 RMK A01 T10161069  RH  067%=      5-min Rain = 0
KBY1 100552Z 29007KT M02/M07 A3037 RMK A01 T10171070  RH  067%=      5-min Rain = 0
KBY1 100553Z 29007KT M02/M07 A3037 RMK A01 T10181071  RH  067%=      5-min Rain = 0
KBY1 100554Z 29007KT M02/M07 A3037 RMK A01 T10191070  RH  068%=      5-min Rain = 0
KBY1 100555Z 29007KT M02/M07 A3037 RMK A01 T10201071  RH  068%=      5-min Rain = 0
KBY1 100556Z 29006KT M02/M07 A3037 RMK A01 T10201070  RH  069%=      5-min Rain = 0
KBY1 100557Z 29006KT M02/M07 A3037 RMK A01 T10201070  RH  069%=      5-min Rain = 0
KBY1 100558Z 29006KT M02/M07 A3037 RMK A01 T10201070  RH  069%=      5-min Rain = 0
KBY1 100559Z 29006KT M02/M07 A3037 RMK A01 T10201070  RH  069%=      5-min Rain = 0

Page generated in 0.141 seconds.